<?xml version="1.0" encoding="UTF-8" standalone="no" ?>
<gpx xmlns="http://www.topografix.com/GPX/1/1" xmlns:xsi="http://www.w3.org/2001/XMLSchema-instance" xsi:schemaLocation="http://www.topografix.com/GPX/1/1 http://www.topografix.com/GPX/1/1/gpx.xsd" version="1.1" creator="VisuGPX - https://www.visugpx.com">
  <metadata>
    <name>GR20 20150701 Etape 9 l'Onda - Vizzavona</name>
    <desc><![CDATA[GR20 Etape 9
Météo ensoleillée]]></desc>
  </metadata>
  <trk>
    <name><![CDATA[ACTIVE LOG110851]]></name>
    <trkseg>
      <trkpt lat="42.12222" lon="9.09156">
        <ele>1406.073</ele>
        <time>2015-07-01T09:08:51Z</time>
      </trkpt>
      <trkpt lat="42.12218" lon="9.09148">
        <ele>1407.637</ele>
        <time>2015-07-01T09:09:00Z</time>
      </trkpt>
      <trkpt lat="42.12218" lon="9.09142">
        <ele>1410.849</ele>
        <time>2015-07-01T09:09:07Z</time>
      </trkpt>
      <trkpt lat="42.12217" lon="9.09147">
        <ele>1414.122</ele>
        <time>2015-07-01T09:09:14Z</time>
      </trkpt>
      <trkpt lat="42.12217" lon="9.09147">
        <ele>1414.242</ele>
        <time>2015-07-01T09:09:15Z</time>
      </trkpt>
      <trkpt lat="42.12216" lon="9.09149">
        <ele>1417.691</ele>
        <time>2015-07-01T09:09:21Z</time>
      </trkpt>
      <trkpt lat="42.12215" lon="9.09149">
        <ele>1417.841</ele>
        <time>2015-07-01T09:09:22Z</time>
      </trkpt>
      <trkpt lat="42.12215" lon="9.0915">
        <ele>1419.142</ele>
        <time>2015-07-01T09:09:25Z</time>
      </trkpt>
      <trkpt lat="42.12214" lon="9.0915">
        <ele>1420.849</ele>
        <time>2015-07-01T09:09:28Z</time>
      </trkpt>
      <trkpt lat="42.12214" lon="9.09151">
        <ele>1423.932</ele>
        <time>2015-07-01T09:09:34Z</time>
      </trkpt>
      <trkpt lat="42.12213" lon="9.0915">
        <ele>1427.607</ele>
        <time>2015-07-01T09:09:41Z</time>
      </trkpt>
      <trkpt lat="42.12213" lon="9.09149">
        <ele>1431.794</ele>
        <time>2015-07-01T09:09:53Z</time>
      </trkpt>
      <trkpt lat="42.12213" lon="9.09149">
        <ele>1435.794</ele>
        <time>2015-07-01T09:10:06Z</time>
      </trkpt>
      <trkpt lat="42.12213" lon="9.09148">
        <ele>1438.891</ele>
        <time>2015-07-01T09:10:25Z</time>
      </trkpt>
      <trkpt lat="42.12213" lon="9.09147">
        <ele>1442.008</ele>
        <time>2015-07-01T09:11:12Z</time>
      </trkpt>
      <trkpt lat="42.12213" lon="9.09147">
        <ele>1442.188</ele>
        <time>2015-07-01T09:11:32Z</time>
      </trkpt>
      <trkpt lat="42.12214" lon="9.0914">
        <ele>1435.48</ele>
        <time>2015-07-01T09:11:51Z</time>
      </trkpt>
      <trkpt lat="42.12214" lon="9.09139">
        <ele>1445.779</ele>
        <time>2015-07-01T09:11:52Z</time>
      </trkpt>
      <trkpt lat="42.12214" lon="9.09139">
        <ele>1440.965</ele>
        <time>2015-07-01T09:11:53Z</time>
      </trkpt>
      <trkpt lat="42.12203" lon="9.09141">
        <ele>1442.694</ele>
        <time>2015-07-01T09:12:34Z</time>
      </trkpt>
      <trkpt lat="42.12218" lon="9.09153">
        <ele>1442.698</ele>
        <time>2015-07-01T09:13:01Z</time>
      </trkpt>
      <trkpt lat="42.12213" lon="9.0915">
        <ele>1440.395</ele>
        <time>2015-07-01T09:14:15Z</time>
      </trkpt>
      <trkpt lat="42.12203" lon="9.09152">
        <ele>1439.226</ele>
        <time>2015-07-01T09:14:26Z</time>
      </trkpt>
      <trkpt lat="42.12191" lon="9.09159">
        <ele>1438.837</ele>
        <time>2015-07-01T09:14:39Z</time>
      </trkpt>
      <trkpt lat="42.12178" lon="9.09171">
        <ele>1437.182</ele>
        <time>2015-07-01T09:14:55Z</time>
      </trkpt>
      <trkpt lat="42.1217" lon="9.0917">
        <ele>1437.373</ele>
        <time>2015-07-01T09:15:05Z</time>
      </trkpt>
      <trkpt lat="42.12169" lon="9.09174">
        <ele>1436.619</ele>
        <time>2015-07-01T09:15:19Z</time>
      </trkpt>
      <trkpt lat="42.12168" lon="9.09173">
        <ele>1435.961</ele>
        <time>2015-07-01T09:15:24Z</time>
      </trkpt>
      <trkpt lat="42.12165" lon="9.09171">
        <ele>1435.97</ele>
        <time>2015-07-01T09:15:43Z</time>
      </trkpt>
      <trkpt lat="42.12166" lon="9.09169">
        <ele>1436.616</ele>
        <time>2015-07-01T09:16:17Z</time>
      </trkpt>
      <trkpt lat="42.12154" lon="9.0918">
        <ele>1435.819</ele>
        <time>2015-07-01T09:16:30Z</time>
      </trkpt>
      <trkpt lat="42.12151" lon="9.09182">
        <ele>1435.019</ele>
        <time>2015-07-01T09:16:34Z</time>
      </trkpt>
      <trkpt lat="42.12142" lon="9.09195">
        <ele>1434.747</ele>
        <time>2015-07-01T09:16:45Z</time>
      </trkpt>
      <trkpt lat="42.12138" lon="9.09204">
        <ele>1435.121</ele>
        <time>2015-07-01T09:16:53Z</time>
      </trkpt>
      <trkpt lat="42.12133" lon="9.09215">
        <ele>1433.188</ele>
        <time>2015-07-01T09:17:08Z</time>
      </trkpt>
      <trkpt lat="42.12131" lon="9.09223">
        <ele>1431.432</ele>
        <time>2015-07-01T09:17:21Z</time>
      </trkpt>
      <trkpt lat="42.1213" lon="9.09231">
        <ele>1427.748</ele>
        <time>2015-07-01T09:17:35Z</time>
      </trkpt>
      <trkpt lat="42.12125" lon="9.09247">
        <ele>1426.434</ele>
        <time>2015-07-01T09:17:50Z</time>
      </trkpt>
      <trkpt lat="42.12125" lon="9.09258">
        <ele>1424.041</ele>
        <time>2015-07-01T09:18:10Z</time>
      </trkpt>
      <trkpt lat="42.12126" lon="9.09262">
        <ele>1420.559</ele>
        <time>2015-07-01T09:18:23Z</time>
      </trkpt>
      <trkpt lat="42.12125" lon="9.0927">
        <ele>1419.677</ele>
        <time>2015-07-01T09:18:34Z</time>
      </trkpt>
      <trkpt lat="42.12123" lon="9.09282">
        <ele>1417.741</ele>
        <time>2015-07-01T09:18:53Z</time>
      </trkpt>
      <trkpt lat="42.12119" lon="9.09301">
        <ele>1415.603</ele>
        <time>2015-07-01T09:19:09Z</time>
      </trkpt>
      <trkpt lat="42.12114" lon="9.09307">
        <ele>1414.243</ele>
        <time>2015-07-01T09:19:21Z</time>
      </trkpt>
      <trkpt lat="42.1211" lon="9.09316">
        <ele>1411.104</ele>
        <time>2015-07-01T09:19:37Z</time>
      </trkpt>
      <trkpt lat="42.12108" lon="9.09327">
        <ele>1408.674</ele>
        <time>2015-07-01T09:19:59Z</time>
      </trkpt>
      <trkpt lat="42.12103" lon="9.09335">
        <ele>1408.352</ele>
        <time>2015-07-01T09:20:08Z</time>
      </trkpt>
      <trkpt lat="42.12107" lon="9.09347">
        <ele>1407.85</ele>
        <time>2015-07-01T09:20:19Z</time>
      </trkpt>
      <trkpt lat="42.1211" lon="9.09354">
        <ele>1407.596</ele>
        <time>2015-07-01T09:20:28Z</time>
      </trkpt>
      <trkpt lat="42.12111" lon="9.09366">
        <ele>1406.439</ele>
        <time>2015-07-01T09:20:41Z</time>
      </trkpt>
      <trkpt lat="42.12108" lon="9.09377">
        <ele>1404.654</ele>
        <time>2015-07-01T09:20:55Z</time>
      </trkpt>
      <trkpt lat="42.12108" lon="9.09387">
        <ele>1401.495</ele>
        <time>2015-07-01T09:21:08Z</time>
      </trkpt>
      <trkpt lat="42.1211" lon="9.09396">
        <ele>1400.694</ele>
        <time>2015-07-01T09:21:19Z</time>
      </trkpt>
      <trkpt lat="42.12115" lon="9.09413">
        <ele>1399.576</ele>
        <time>2015-07-01T09:21:35Z</time>
      </trkpt>
      <trkpt lat="42.12114" lon="9.09418">
        <ele>1399.44</ele>
        <time>2015-07-01T09:21:39Z</time>
      </trkpt>
      <trkpt lat="42.12116" lon="9.09429">
        <ele>1399.021</ele>
        <time>2015-07-01T09:21:48Z</time>
      </trkpt>
      <trkpt lat="42.12114" lon="9.09444">
        <ele>1395.255</ele>
        <time>2015-07-01T09:22:05Z</time>
      </trkpt>
      <trkpt lat="42.12112" lon="9.09449">
        <ele>1392.404</ele>
        <time>2015-07-01T09:22:21Z</time>
      </trkpt>
      <trkpt lat="42.1211" lon="9.09453">
        <ele>1390.79</ele>
        <time>2015-07-01T09:22:32Z</time>
      </trkpt>
      <trkpt lat="42.12106" lon="9.09463">
        <ele>1388.554</ele>
        <time>2015-07-01T09:22:47Z</time>
      </trkpt>
      <trkpt lat="42.12106" lon="9.0947">
        <ele>1387.299</ele>
        <time>2015-07-01T09:22:57Z</time>
      </trkpt>
      <trkpt lat="42.12108" lon="9.09476">
        <ele>1385.435</ele>
        <time>2015-07-01T09:23:10Z</time>
      </trkpt>
      <trkpt lat="42.1211" lon="9.0948">
        <ele>1382.554</ele>
        <time>2015-07-01T09:23:26Z</time>
      </trkpt>
      <trkpt lat="42.12109" lon="9.09499">
        <ele>1379.966</ele>
        <time>2015-07-01T09:23:58Z</time>
      </trkpt>
      <trkpt lat="42.121" lon="9.09505">
        <ele>1379.238</ele>
        <time>2015-07-01T09:24:18Z</time>
      </trkpt>
      <trkpt lat="42.12087" lon="9.09512">
        <ele>1379.081</ele>
        <time>2015-07-01T09:24:31Z</time>
      </trkpt>
      <trkpt lat="42.12082" lon="9.09518">
        <ele>1378.243</ele>
        <time>2015-07-01T09:24:39Z</time>
      </trkpt>
      <trkpt lat="42.1208" lon="9.09521">
        <ele>1377.964</ele>
        <time>2015-07-01T09:24:43Z</time>
      </trkpt>
      <trkpt lat="42.12078" lon="9.09534">
        <ele>1377.271</ele>
        <time>2015-07-01T09:24:58Z</time>
      </trkpt>
      <trkpt lat="42.12075" lon="9.09542">
        <ele>1376.483</ele>
        <time>2015-07-01T09:25:08Z</time>
      </trkpt>
      <trkpt lat="42.12065" lon="9.09563">
        <ele>1374.084</ele>
        <time>2015-07-01T09:25:27Z</time>
      </trkpt>
      <trkpt lat="42.1206" lon="9.09569">
        <ele>1372.86</ele>
        <time>2015-07-01T09:25:34Z</time>
      </trkpt>
      <trkpt lat="42.12059" lon="9.0957">
        <ele>1372.35</ele>
        <time>2015-07-01T09:25:36Z</time>
      </trkpt>
      <trkpt lat="42.12051" lon="9.09577">
        <ele>1370.679</ele>
        <time>2015-07-01T09:25:47Z</time>
      </trkpt>
      <trkpt lat="42.12047" lon="9.09584">
        <ele>1368.45</ele>
        <time>2015-07-01T09:25:59Z</time>
      </trkpt>
      <trkpt lat="42.12042" lon="9.09585">
        <ele>1365.779</ele>
        <time>2015-07-01T09:26:14Z</time>
      </trkpt>
      <trkpt lat="42.12039" lon="9.09583">
        <ele>1364.668</ele>
        <time>2015-07-01T09:26:26Z</time>
      </trkpt>
      <trkpt lat="42.12038" lon="9.09582">
        <ele>1362.887</ele>
        <time>2015-07-01T09:26:38Z</time>
      </trkpt>
      <trkpt lat="42.12038" lon="9.09589">
        <ele>1360.678</ele>
        <time>2015-07-01T09:26:57Z</time>
      </trkpt>
      <trkpt lat="42.12033" lon="9.09596">
        <ele>1359.073</ele>
        <time>2015-07-01T09:27:07Z</time>
      </trkpt>
      <trkpt lat="42.12019" lon="9.09612">
        <ele>1358.257</ele>
        <time>2015-07-01T09:27:21Z</time>
      </trkpt>
      <trkpt lat="42.12019" lon="9.0963">
        <ele>1357.819</ele>
        <time>2015-07-01T09:27:37Z</time>
      </trkpt>
      <trkpt lat="42.12015" lon="9.09643">
        <ele>1356.577</ele>
        <time>2015-07-01T09:27:52Z</time>
      </trkpt>
      <trkpt lat="42.12016" lon="9.09644">
        <ele>1356.471</ele>
        <time>2015-07-01T09:27:53Z</time>
      </trkpt>
      <trkpt lat="42.12013" lon="9.0966">
        <ele>1355.587</ele>
        <time>2015-07-01T09:28:06Z</time>
      </trkpt>
      <trkpt lat="42.1201" lon="9.09674">
        <ele>1354.167</ele>
        <time>2015-07-01T09:28:21Z</time>
      </trkpt>
      <trkpt lat="42.12006" lon="9.09688">
        <ele>1354.535</ele>
        <time>2015-07-01T09:28:33Z</time>
      </trkpt>
      <trkpt lat="42.12002" lon="9.09698">
        <ele>1352.123</ele>
        <time>2015-07-01T09:28:45Z</time>
      </trkpt>
      <trkpt lat="42.11999" lon="9.09705">
        <ele>1353.635</ele>
        <time>2015-07-01T09:28:52Z</time>
      </trkpt>
      <trkpt lat="42.1199" lon="9.0973">
        <ele>1353.411</ele>
        <time>2015-07-01T09:29:12Z</time>
      </trkpt>
      <trkpt lat="42.11983" lon="9.09742">
        <ele>1354.107</ele>
        <time>2015-07-01T09:29:29Z</time>
      </trkpt>
      <trkpt lat="42.11979" lon="9.09761">
        <ele>1352.832</ele>
        <time>2015-07-01T09:29:43Z</time>
      </trkpt>
      <trkpt lat="42.11973" lon="9.09775">
        <ele>1350.469</ele>
        <time>2015-07-01T09:29:58Z</time>
      </trkpt>
      <trkpt lat="42.11971" lon="9.09785">
        <ele>1349.023</ele>
        <time>2015-07-01T09:30:07Z</time>
      </trkpt>
      <trkpt lat="42.11972" lon="9.098">
        <ele>1346.003</ele>
        <time>2015-07-01T09:30:22Z</time>
      </trkpt>
      <trkpt lat="42.11963" lon="9.09808">
        <ele>1341.94</ele>
        <time>2015-07-01T09:30:37Z</time>
      </trkpt>
      <trkpt lat="42.11958" lon="9.0982">
        <ele>1338.875</ele>
        <time>2015-07-01T09:30:54Z</time>
      </trkpt>
      <trkpt lat="42.11955" lon="9.09826">
        <ele>1336.482</ele>
        <time>2015-07-01T09:31:07Z</time>
      </trkpt>
      <trkpt lat="42.11953" lon="9.09832">
        <ele>1333.842</ele>
        <time>2015-07-01T09:31:19Z</time>
      </trkpt>
      <trkpt lat="42.11948" lon="9.09835">
        <ele>1330.948</ele>
        <time>2015-07-01T09:31:32Z</time>
      </trkpt>
      <trkpt lat="42.11946" lon="9.09844">
        <ele>1328.778</ele>
        <time>2015-07-01T09:31:47Z</time>
      </trkpt>
      <trkpt lat="42.11947" lon="9.09849">
        <ele>1326.325</ele>
        <time>2015-07-01T09:32:02Z</time>
      </trkpt>
      <trkpt lat="42.11946" lon="9.09853">
        <ele>1324.337</ele>
        <time>2015-07-01T09:32:14Z</time>
      </trkpt>
      <trkpt lat="42.11949" lon="9.0986">
        <ele>1322.419</ele>
        <time>2015-07-01T09:32:27Z</time>
      </trkpt>
      <trkpt lat="42.11945" lon="9.09865">
        <ele>1321.428</ele>
        <time>2015-07-01T09:32:39Z</time>
      </trkpt>
      <trkpt lat="42.11943" lon="9.09873">
        <ele>1318.335</ele>
        <time>2015-07-01T09:32:50Z</time>
      </trkpt>
      <trkpt lat="42.11944" lon="9.09883">
        <ele>1315.243</ele>
        <time>2015-07-01T09:33:05Z</time>
      </trkpt>
      <trkpt lat="42.11942" lon="9.09896">
        <ele>1314.259</ele>
        <time>2015-07-01T09:33:18Z</time>
      </trkpt>
      <trkpt lat="42.11936" lon="9.09911">
        <ele>1313.778</ele>
        <time>2015-07-01T09:33:32Z</time>
      </trkpt>
      <trkpt lat="42.11931" lon="9.09918">
        <ele>1311.791</ele>
        <time>2015-07-01T09:33:45Z</time>
      </trkpt>
      <trkpt lat="42.11926" lon="9.09923">
        <ele>1309.313</ele>
        <time>2015-07-01T09:34:02Z</time>
      </trkpt>
      <trkpt lat="42.11925" lon="9.09932">
        <ele>1308.053</ele>
        <time>2015-07-01T09:34:16Z</time>
      </trkpt>
      <trkpt lat="42.11922" lon="9.09947">
        <ele>1306.524</ele>
        <time>2015-07-01T09:34:32Z</time>
      </trkpt>
      <trkpt lat="42.11916" lon="9.09961">
        <ele>1305.224</ele>
        <time>2015-07-01T09:34:47Z</time>
      </trkpt>
      <trkpt lat="42.11915" lon="9.09975">
        <ele>1303.856</ele>
        <time>2015-07-01T09:35:02Z</time>
      </trkpt>
      <trkpt lat="42.11914" lon="9.09984">
        <ele>1301.756</ele>
        <time>2015-07-01T09:35:12Z</time>
      </trkpt>
      <trkpt lat="42.11906" lon="9.09988">
        <ele>1303.337</ele>
        <time>2015-07-01T09:35:26Z</time>
      </trkpt>
      <trkpt lat="42.11897" lon="9.09994">
        <ele>1302.28</ele>
        <time>2015-07-01T09:35:42Z</time>
      </trkpt>
      <trkpt lat="42.11897" lon="9.10008">
        <ele>1299.156</ele>
        <time>2015-07-01T09:35:58Z</time>
      </trkpt>
      <trkpt lat="42.11896" lon="9.10016">
        <ele>1297.803</ele>
        <time>2015-07-01T09:36:12Z</time>
      </trkpt>
      <trkpt lat="42.11899" lon="9.10022">
        <ele>1296.449</ele>
        <time>2015-07-01T09:36:27Z</time>
      </trkpt>
      <trkpt lat="42.11902" lon="9.10029">
        <ele>1294.518</ele>
        <time>2015-07-01T09:36:42Z</time>
      </trkpt>
      <trkpt lat="42.11905" lon="9.10034">
        <ele>1291.207</ele>
        <time>2015-07-01T09:36:57Z</time>
      </trkpt>
      <trkpt lat="42.11902" lon="9.10034">
        <ele>1290.564</ele>
        <time>2015-07-01T09:37:09Z</time>
      </trkpt>
      <trkpt lat="42.11894" lon="9.1004">
        <ele>1287.907</ele>
        <time>2015-07-01T09:37:24Z</time>
      </trkpt>
      <trkpt lat="42.11888" lon="9.10045">
        <ele>1285.553</ele>
        <time>2015-07-01T09:37:35Z</time>
      </trkpt>
      <trkpt lat="42.11885" lon="9.1005">
        <ele>1285.078</ele>
        <time>2015-07-01T09:37:49Z</time>
      </trkpt>
      <trkpt lat="42.11886" lon="9.10056">
        <ele>1286.753</ele>
        <time>2015-07-01T09:38:02Z</time>
      </trkpt>
      <trkpt lat="42.11888" lon="9.10064">
        <ele>1286.416</ele>
        <time>2015-07-01T09:38:14Z</time>
      </trkpt>
      <trkpt lat="42.11897" lon="9.10079">
        <ele>1285.558</ele>
        <time>2015-07-01T09:38:31Z</time>
      </trkpt>
      <trkpt lat="42.11904" lon="9.10082">
        <ele>1283.15</ele>
        <time>2015-07-01T09:38:44Z</time>
      </trkpt>
      <trkpt lat="42.1191" lon="9.10098">
        <ele>1282.887</ele>
        <time>2015-07-01T09:38:56Z</time>
      </trkpt>
      <trkpt lat="42.11912" lon="9.10106">
        <ele>1282.394</ele>
        <time>2015-07-01T09:39:00Z</time>
      </trkpt>
      <trkpt lat="42.1192" lon="9.10124">
        <ele>1280.87</ele>
        <time>2015-07-01T09:39:14Z</time>
      </trkpt>
      <trkpt lat="42.11925" lon="9.10134">
        <ele>1279.313</ele>
        <time>2015-07-01T09:39:26Z</time>
      </trkpt>
      <trkpt lat="42.11926" lon="9.10135">
        <ele>1279.178</ele>
        <time>2015-07-01T09:39:28Z</time>
      </trkpt>
      <trkpt lat="42.11925" lon="9.10147">
        <ele>1278.992</ele>
        <time>2015-07-01T09:39:43Z</time>
      </trkpt>
      <trkpt lat="42.11923" lon="9.10159">
        <ele>1276.954</ele>
        <time>2015-07-01T09:39:55Z</time>
      </trkpt>
      <trkpt lat="42.11921" lon="9.10176">
        <ele>1276.179</ele>
        <time>2015-07-01T09:40:08Z</time>
      </trkpt>
      <trkpt lat="42.11924" lon="9.10191">
        <ele>1276.303</ele>
        <time>2015-07-01T09:40:22Z</time>
      </trkpt>
      <trkpt lat="42.11925" lon="9.10192">
        <ele>1276.346</ele>
        <time>2015-07-01T09:40:23Z</time>
      </trkpt>
      <trkpt lat="42.11916" lon="9.10207">
        <ele>1274.97</ele>
        <time>2015-07-01T09:40:36Z</time>
      </trkpt>
      <trkpt lat="42.11918" lon="9.10224">
        <ele>1273.84</ele>
        <time>2015-07-01T09:40:49Z</time>
      </trkpt>
      <trkpt lat="42.11914" lon="9.10227">
        <ele>1273.566</ele>
        <time>2015-07-01T09:40:52Z</time>
      </trkpt>
      <trkpt lat="42.11907" lon="9.10237">
        <ele>1273.745</ele>
        <time>2015-07-01T09:40:58Z</time>
      </trkpt>
      <trkpt lat="42.1191" lon="9.10258">
        <ele>1274.294</ele>
        <time>2015-07-01T09:41:13Z</time>
      </trkpt>
      <trkpt lat="42.1191" lon="9.10263">
        <ele>1274.132</ele>
        <time>2015-07-01T09:41:19Z</time>
      </trkpt>
      <trkpt lat="42.1191" lon="9.10269">
        <ele>1272.829</ele>
        <time>2015-07-01T09:41:25Z</time>
      </trkpt>
      <trkpt lat="42.11919" lon="9.10279">
        <ele>1273.966</ele>
        <time>2015-07-01T09:41:36Z</time>
      </trkpt>
      <trkpt lat="42.11925" lon="9.10297">
        <ele>1274.104</ele>
        <time>2015-07-01T09:41:55Z</time>
      </trkpt>
      <trkpt lat="42.11929" lon="9.10299">
        <ele>1273.359</ele>
        <time>2015-07-01T09:41:59Z</time>
      </trkpt>
      <trkpt lat="42.11936" lon="9.10312">
        <ele>1272.74</ele>
        <time>2015-07-01T09:42:13Z</time>
      </trkpt>
      <trkpt lat="42.11931" lon="9.10325">
        <ele>1272.448</ele>
        <time>2015-07-01T09:42:26Z</time>
      </trkpt>
      <trkpt lat="42.11924" lon="9.10335">
        <ele>1270.765</ele>
        <time>2015-07-01T09:42:37Z</time>
      </trkpt>
      <trkpt lat="42.11923" lon="9.10336">
        <ele>1270.153</ele>
        <time>2015-07-01T09:42:39Z</time>
      </trkpt>
      <trkpt lat="42.11926" lon="9.10342">
        <ele>1269.05</ele>
        <time>2015-07-01T09:42:47Z</time>
      </trkpt>
      <trkpt lat="42.11926" lon="9.10355">
        <ele>1268.643</ele>
        <time>2015-07-01T09:42:58Z</time>
      </trkpt>
      <trkpt lat="42.11924" lon="9.10367">
        <ele>1269.297</ele>
        <time>2015-07-01T09:43:09Z</time>
      </trkpt>
      <trkpt lat="42.1192" lon="9.10377">
        <ele>1269.58</ele>
        <time>2015-07-01T09:43:21Z</time>
      </trkpt>
      <trkpt lat="42.1191" lon="9.10389">
        <ele>1268.367</ele>
        <time>2015-07-01T09:43:35Z</time>
      </trkpt>
      <trkpt lat="42.11919" lon="9.10401">
        <ele>1268.365</ele>
        <time>2015-07-01T09:43:48Z</time>
      </trkpt>
      <trkpt lat="42.11911" lon="9.10413">
        <ele>1268.436</ele>
        <time>2015-07-01T09:43:59Z</time>
      </trkpt>
      <trkpt lat="42.11912" lon="9.10414">
        <ele>1267.929</ele>
        <time>2015-07-01T09:44:01Z</time>
      </trkpt>
      <trkpt lat="42.11921" lon="9.10426">
        <ele>1269.5</ele>
        <time>2015-07-01T09:44:15Z</time>
      </trkpt>
      <trkpt lat="42.11923" lon="9.10427">
        <ele>1269.438</ele>
        <time>2015-07-01T09:44:16Z</time>
      </trkpt>
      <trkpt lat="42.11931" lon="9.10437">
        <ele>1270.185</ele>
        <time>2015-07-01T09:44:34Z</time>
      </trkpt>
      <trkpt lat="42.11926" lon="9.10449">
        <ele>1268.13</ele>
        <time>2015-07-01T09:45:12Z</time>
      </trkpt>
      <trkpt lat="42.1193" lon="9.10457">
        <ele>1269.778</ele>
        <time>2015-07-01T09:45:34Z</time>
      </trkpt>
      <trkpt lat="42.11923" lon="9.10468">
        <ele>1272.01</ele>
        <time>2015-07-01T09:45:57Z</time>
      </trkpt>
      <trkpt lat="42.1193" lon="9.10481">
        <ele>1273.946</ele>
        <time>2015-07-01T09:46:34Z</time>
      </trkpt>
      <trkpt lat="42.11929" lon="9.10489">
        <ele>1273.511</ele>
        <time>2015-07-01T09:46:44Z</time>
      </trkpt>
      <trkpt lat="42.11924" lon="9.10496">
        <ele>1272.893</ele>
        <time>2015-07-01T09:46:59Z</time>
      </trkpt>
      <trkpt lat="42.11929" lon="9.10503">
        <ele>1271.067</ele>
        <time>2015-07-01T09:47:26Z</time>
      </trkpt>
      <trkpt lat="42.11928" lon="9.10511">
        <ele>1269.75</ele>
        <time>2015-07-01T09:47:36Z</time>
      </trkpt>
      <trkpt lat="42.11926" lon="9.1052">
        <ele>1270.902</ele>
        <time>2015-07-01T09:47:46Z</time>
      </trkpt>
      <trkpt lat="42.11926" lon="9.10528">
        <ele>1270.637</ele>
        <time>2015-07-01T09:47:56Z</time>
      </trkpt>
      <trkpt lat="42.11923" lon="9.10537">
        <ele>1268.859</ele>
        <time>2015-07-01T09:48:09Z</time>
      </trkpt>
      <trkpt lat="42.11921" lon="9.1055">
        <ele>1267.377</ele>
        <time>2015-07-01T09:48:24Z</time>
      </trkpt>
      <trkpt lat="42.11919" lon="9.10558">
        <ele>1266.77</ele>
        <time>2015-07-01T09:48:34Z</time>
      </trkpt>
      <trkpt lat="42.11917" lon="9.10568">
        <ele>1266.724</ele>
        <time>2015-07-01T09:48:45Z</time>
      </trkpt>
      <trkpt lat="42.11917" lon="9.1057">
        <ele>1266.253</ele>
        <time>2015-07-01T09:48:47Z</time>
      </trkpt>
      <trkpt lat="42.11914" lon="9.10575">
        <ele>1266.308</ele>
        <time>2015-07-01T09:48:52Z</time>
      </trkpt>
      <trkpt lat="42.11909" lon="9.10587">
        <ele>1265.622</ele>
        <time>2015-07-01T09:49:07Z</time>
      </trkpt>
      <trkpt lat="42.1191" lon="9.10595">
        <ele>1263.887</ele>
        <time>2015-07-01T09:49:20Z</time>
      </trkpt>
      <trkpt lat="42.1191" lon="9.10601">
        <ele>1262.656</ele>
        <time>2015-07-01T09:49:33Z</time>
      </trkpt>
      <trkpt lat="42.11912" lon="9.10606">
        <ele>1261.081</ele>
        <time>2015-07-01T09:49:47Z</time>
      </trkpt>
      <trkpt lat="42.11911" lon="9.10605">
        <ele>1260.39</ele>
        <time>2015-07-01T09:50:04Z</time>
      </trkpt>
      <trkpt lat="42.11901" lon="9.10609">
        <ele>1257.384</ele>
        <time>2015-07-01T09:51:13Z</time>
      </trkpt>
      <trkpt lat="42.11904" lon="9.10611">
        <ele>1257.105</ele>
        <time>2015-07-01T09:51:18Z</time>
      </trkpt>
      <trkpt lat="42.11918" lon="9.10618">
        <ele>1255.341</ele>
        <time>2015-07-01T09:51:27Z</time>
      </trkpt>
      <trkpt lat="42.11922" lon="9.10624">
        <ele>1252.268</ele>
        <time>2015-07-01T09:51:45Z</time>
      </trkpt>
      <trkpt lat="42.1192" lon="9.10623">
        <ele>1250.309</ele>
        <time>2015-07-01T09:52:03Z</time>
      </trkpt>
      <trkpt lat="42.11932" lon="9.10626">
        <ele>1248.398</ele>
        <time>2015-07-01T09:52:15Z</time>
      </trkpt>
      <trkpt lat="42.11934" lon="9.10632">
        <ele>1246.372</ele>
        <time>2015-07-01T09:52:31Z</time>
      </trkpt>
      <trkpt lat="42.11932" lon="9.10632">
        <ele>1246.197</ele>
        <time>2015-07-01T09:52:32Z</time>
      </trkpt>
      <trkpt lat="42.11927" lon="9.1064">
        <ele>1244.884</ele>
        <time>2015-07-01T09:52:43Z</time>
      </trkpt>
      <trkpt lat="42.11921" lon="9.10643">
        <ele>1244.966</ele>
        <time>2015-07-01T09:52:48Z</time>
      </trkpt>
      <trkpt lat="42.11915" lon="9.10644">
        <ele>1245.28</ele>
        <time>2015-07-01T09:52:52Z</time>
      </trkpt>
      <trkpt lat="42.11907" lon="9.10653">
        <ele>1245.855</ele>
        <time>2015-07-01T09:53:04Z</time>
      </trkpt>
      <trkpt lat="42.11901" lon="9.10666">
        <ele>1246.523</ele>
        <time>2015-07-01T09:53:21Z</time>
      </trkpt>
      <trkpt lat="42.11899" lon="9.10671">
        <ele>1246.338</ele>
        <time>2015-07-01T09:53:26Z</time>
      </trkpt>
      <trkpt lat="42.11889" lon="9.10679">
        <ele>1245.322</ele>
        <time>2015-07-01T09:53:41Z</time>
      </trkpt>
      <trkpt lat="42.11885" lon="9.1069">
        <ele>1243.723</ele>
        <time>2015-07-01T09:53:54Z</time>
      </trkpt>
      <trkpt lat="42.11877" lon="9.10694">
        <ele>1242.278</ele>
        <time>2015-07-01T09:54:04Z</time>
      </trkpt>
      <trkpt lat="42.11875" lon="9.10703">
        <ele>1240.256</ele>
        <time>2015-07-01T09:54:20Z</time>
      </trkpt>
      <trkpt lat="42.1187" lon="9.10706">
        <ele>1238.798</ele>
        <time>2015-07-01T09:54:36Z</time>
      </trkpt>
      <trkpt lat="42.11867" lon="9.1071">
        <ele>1235.771</ele>
        <time>2015-07-01T09:54:48Z</time>
      </trkpt>
      <trkpt lat="42.11863" lon="9.10714">
        <ele>1234.064</ele>
        <time>2015-07-01T09:55:00Z</time>
      </trkpt>
      <trkpt lat="42.11856" lon="9.10715">
        <ele>1232.645</ele>
        <time>2015-07-01T09:55:13Z</time>
      </trkpt>
      <trkpt lat="42.11855" lon="9.10721">
        <ele>1230.688</ele>
        <time>2015-07-01T09:55:26Z</time>
      </trkpt>
      <trkpt lat="42.11853" lon="9.10728">
        <ele>1228.162</ele>
        <time>2015-07-01T09:55:39Z</time>
      </trkpt>
      <trkpt lat="42.11857" lon="9.10735">
        <ele>1226.031</ele>
        <time>2015-07-01T09:55:55Z</time>
      </trkpt>
      <trkpt lat="42.11852" lon="9.10744">
        <ele>1224.191</ele>
        <time>2015-07-01T09:56:10Z</time>
      </trkpt>
      <trkpt lat="42.11843" lon="9.10749">
        <ele>1222.679</ele>
        <time>2015-07-01T09:56:22Z</time>
      </trkpt>
      <trkpt lat="42.11834" lon="9.10749">
        <ele>1222.624</ele>
        <time>2015-07-01T09:56:35Z</time>
      </trkpt>
      <trkpt lat="42.11829" lon="9.10757">
        <ele>1221.55</ele>
        <time>2015-07-01T09:56:50Z</time>
      </trkpt>
      <trkpt lat="42.11825" lon="9.10763">
        <ele>1219.83</ele>
        <time>2015-07-01T09:57:02Z</time>
      </trkpt>
      <trkpt lat="42.11819" lon="9.10771">
        <ele>1216.37</ele>
        <time>2015-07-01T09:57:17Z</time>
      </trkpt>
      <trkpt lat="42.11818" lon="9.10772">
        <ele>1215.68</ele>
        <time>2015-07-01T09:57:19Z</time>
      </trkpt>
      <trkpt lat="42.11812" lon="9.10777">
        <ele>1214.013</ele>
        <time>2015-07-01T09:57:31Z</time>
      </trkpt>
      <trkpt lat="42.11807" lon="9.10783">
        <ele>1213.579</ele>
        <time>2015-07-01T09:57:43Z</time>
      </trkpt>
      <trkpt lat="42.11805" lon="9.10789">
        <ele>1210.348</ele>
        <time>2015-07-01T09:58:02Z</time>
      </trkpt>
      <trkpt lat="42.11807" lon="9.10788">
        <ele>1210.161</ele>
        <time>2015-07-01T09:58:15Z</time>
      </trkpt>
      <trkpt lat="42.11804" lon="9.10794">
        <ele>1207.714</ele>
        <time>2015-07-01T09:58:31Z</time>
      </trkpt>
      <trkpt lat="42.11802" lon="9.10799">
        <ele>1204.999</ele>
        <time>2015-07-01T09:58:44Z</time>
      </trkpt>
      <trkpt lat="42.11798" lon="9.10806">
        <ele>1203.756</ele>
        <time>2015-07-01T09:59:01Z</time>
      </trkpt>
      <trkpt lat="42.11802" lon="9.10811">
        <ele>1200.689</ele>
        <time>2015-07-01T09:59:19Z</time>
      </trkpt>
      <trkpt lat="42.11799" lon="9.10816">
        <ele>1198.264</ele>
        <time>2015-07-01T09:59:34Z</time>
      </trkpt>
      <trkpt lat="42.11799" lon="9.10822">
        <ele>1196.081</ele>
        <time>2015-07-01T09:59:54Z</time>
      </trkpt>
      <trkpt lat="42.11792" lon="9.10823">
        <ele>1194.177</ele>
        <time>2015-07-01T10:00:15Z</time>
      </trkpt>
      <trkpt lat="42.11788" lon="9.10828">
        <ele>1191.042</ele>
        <time>2015-07-01T10:00:29Z</time>
      </trkpt>
      <trkpt lat="42.11782" lon="9.10833">
        <ele>1190.244</ele>
        <time>2015-07-01T10:00:46Z</time>
      </trkpt>
      <trkpt lat="42.11781" lon="9.10836">
        <ele>1188.416</ele>
        <time>2015-07-01T10:01:02Z</time>
      </trkpt>
      <trkpt lat="42.11782" lon="9.10839">
        <ele>1185.696</ele>
        <time>2015-07-01T10:01:14Z</time>
      </trkpt>
      <trkpt lat="42.11785" lon="9.10843">
        <ele>1184.538</ele>
        <time>2015-07-01T10:01:28Z</time>
      </trkpt>
      <trkpt lat="42.11785" lon="9.10844">
        <ele>1183.49</ele>
        <time>2015-07-01T10:01:43Z</time>
      </trkpt>
      <trkpt lat="42.11785" lon="9.10845">
        <ele>1181.704</ele>
        <time>2015-07-01T10:02:02Z</time>
      </trkpt>
      <trkpt lat="42.1178" lon="9.10854">
        <ele>1180.52</ele>
        <time>2015-07-01T10:02:15Z</time>
      </trkpt>
      <trkpt lat="42.11774" lon="9.10857">
        <ele>1177.625</ele>
        <time>2015-07-01T10:02:33Z</time>
      </trkpt>
      <trkpt lat="42.11774" lon="9.10857">
        <ele>1174.548</ele>
        <time>2015-07-01T10:03:02Z</time>
      </trkpt>
      <trkpt lat="42.11772" lon="9.10862">
        <ele>1172.384</ele>
        <time>2015-07-01T10:03:20Z</time>
      </trkpt>
      <trkpt lat="42.11773" lon="9.10864">
        <ele>1171.019</ele>
        <time>2015-07-01T10:03:32Z</time>
      </trkpt>
      <trkpt lat="42.11777" lon="9.10872">
        <ele>1167.964</ele>
        <time>2015-07-01T10:03:46Z</time>
      </trkpt>
      <trkpt lat="42.11781" lon="9.1088">
        <ele>1166.876</ele>
        <time>2015-07-01T10:03:57Z</time>
      </trkpt>
      <trkpt lat="42.11781" lon="9.10894">
        <ele>1165.378</ele>
        <time>2015-07-01T10:04:13Z</time>
      </trkpt>
      <trkpt lat="42.11776" lon="9.10903">
        <ele>1163.3</ele>
        <time>2015-07-01T10:04:26Z</time>
      </trkpt>
      <trkpt lat="42.11769" lon="9.10898">
        <ele>1163.058</ele>
        <time>2015-07-01T10:04:41Z</time>
      </trkpt>
      <trkpt lat="42.11766" lon="9.10901">
        <ele>1161.568</ele>
        <time>2015-07-01T10:04:59Z</time>
      </trkpt>
      <trkpt lat="42.11762" lon="9.10909">
        <ele>1161.657</ele>
        <time>2015-07-01T10:05:13Z</time>
      </trkpt>
      <trkpt lat="42.11757" lon="9.10913">
        <ele>1158.345</ele>
        <time>2015-07-01T10:05:27Z</time>
      </trkpt>
      <trkpt lat="42.11753" lon="9.1092">
        <ele>1157.391</ele>
        <time>2015-07-01T10:05:41Z</time>
      </trkpt>
      <trkpt lat="42.11748" lon="9.10927">
        <ele>1156.759</ele>
        <time>2015-07-01T10:05:53Z</time>
      </trkpt>
      <trkpt lat="42.11744" lon="9.10931">
        <ele>1155.179</ele>
        <time>2015-07-01T10:06:05Z</time>
      </trkpt>
      <trkpt lat="42.11736" lon="9.10934">
        <ele>1154.219</ele>
        <time>2015-07-01T10:06:18Z</time>
      </trkpt>
      <trkpt lat="42.11727" lon="9.1094">
        <ele>1151.244</ele>
        <time>2015-07-01T10:06:31Z</time>
      </trkpt>
      <trkpt lat="42.11722" lon="9.10946">
        <ele>1150.036</ele>
        <time>2015-07-01T10:06:42Z</time>
      </trkpt>
      <trkpt lat="42.11718" lon="9.10953">
        <ele>1148.279</ele>
        <time>2015-07-01T10:06:55Z</time>
      </trkpt>
      <trkpt lat="42.11722" lon="9.10956">
        <ele>1147.891</ele>
        <time>2015-07-01T10:07:04Z</time>
      </trkpt>
      <trkpt lat="42.1172" lon="9.10966">
        <ele>1144.634</ele>
        <time>2015-07-01T10:07:16Z</time>
      </trkpt>
      <trkpt lat="42.11715" lon="9.10971">
        <ele>1143.334</ele>
        <time>2015-07-01T10:07:28Z</time>
      </trkpt>
      <trkpt lat="42.11708" lon="9.10977">
        <ele>1141.468</ele>
        <time>2015-07-01T10:07:40Z</time>
      </trkpt>
      <trkpt lat="42.11703" lon="9.1098">
        <ele>1141.573</ele>
        <time>2015-07-01T10:07:55Z</time>
      </trkpt>
      <trkpt lat="42.11702" lon="9.10989">
        <ele>1140.745</ele>
        <time>2015-07-01T10:08:13Z</time>
      </trkpt>
      <trkpt lat="42.11704" lon="9.11003">
        <ele>1138.885</ele>
        <time>2015-07-01T10:08:24Z</time>
      </trkpt>
      <trkpt lat="42.11702" lon="9.11003">
        <ele>1138.943</ele>
        <time>2015-07-01T10:08:26Z</time>
      </trkpt>
      <trkpt lat="42.1169" lon="9.11011">
        <ele>1138.401</ele>
        <time>2015-07-01T10:08:40Z</time>
      </trkpt>
      <trkpt lat="42.11685" lon="9.11017">
        <ele>1137.389</ele>
        <time>2015-07-01T10:08:51Z</time>
      </trkpt>
      <trkpt lat="42.11675" lon="9.11021">
        <ele>1136.527</ele>
        <time>2015-07-01T10:09:00Z</time>
      </trkpt>
      <trkpt lat="42.11669" lon="9.11026">
        <ele>1134.55</ele>
        <time>2015-07-01T10:09:10Z</time>
      </trkpt>
      <trkpt lat="42.11666" lon="9.11034">
        <ele>1133.061</ele>
        <time>2015-07-01T10:09:21Z</time>
      </trkpt>
      <trkpt lat="42.11666" lon="9.11043">
        <ele>1131.697</ele>
        <time>2015-07-01T10:09:33Z</time>
      </trkpt>
      <trkpt lat="42.11663" lon="9.11049">
        <ele>1129.898</ele>
        <time>2015-07-01T10:09:46Z</time>
      </trkpt>
      <trkpt lat="42.11658" lon="9.11053">
        <ele>1128.096</ele>
        <time>2015-07-01T10:09:59Z</time>
      </trkpt>
      <trkpt lat="42.11657" lon="9.11057">
        <ele>1126.273</ele>
        <time>2015-07-01T10:10:12Z</time>
      </trkpt>
      <trkpt lat="42.11651" lon="9.11063">
        <ele>1126.236</ele>
        <time>2015-07-01T10:10:27Z</time>
      </trkpt>
      <trkpt lat="42.11643" lon="9.11069">
        <ele>1125.505</ele>
        <time>2015-07-01T10:10:37Z</time>
      </trkpt>
      <trkpt lat="42.11637" lon="9.11074">
        <ele>1124.549</ele>
        <time>2015-07-01T10:10:49Z</time>
      </trkpt>
      <trkpt lat="42.11636" lon="9.1108">
        <ele>1123.783</ele>
        <time>2015-07-01T10:11:03Z</time>
      </trkpt>
      <trkpt lat="42.11636" lon="9.11086">
        <ele>1123.659</ele>
        <time>2015-07-01T10:11:16Z</time>
      </trkpt>
      <trkpt lat="42.11628" lon="9.11098">
        <ele>1120.932</ele>
        <time>2015-07-01T10:11:35Z</time>
      </trkpt>
      <trkpt lat="42.11625" lon="9.11108">
        <ele>1120.227</ele>
        <time>2015-07-01T10:11:51Z</time>
      </trkpt>
      <trkpt lat="42.1162" lon="9.11117">
        <ele>1118.69</ele>
        <time>2015-07-01T10:12:03Z</time>
      </trkpt>
      <trkpt lat="42.11615" lon="9.1113">
        <ele>1118.826</ele>
        <time>2015-07-01T10:12:14Z</time>
      </trkpt>
      <trkpt lat="42.1161" lon="9.11145">
        <ele>1117.377</ele>
        <time>2015-07-01T10:12:27Z</time>
      </trkpt>
      <trkpt lat="42.11615" lon="9.11152">
        <ele>1115.04</ele>
        <time>2015-07-01T10:12:39Z</time>
      </trkpt>
      <trkpt lat="42.11622" lon="9.11161">
        <ele>1114.582</ele>
        <time>2015-07-01T10:12:52Z</time>
      </trkpt>
      <trkpt lat="42.11622" lon="9.1117">
        <ele>1113.622</ele>
        <time>2015-07-01T10:13:04Z</time>
      </trkpt>
      <trkpt lat="42.11623" lon="9.1118">
        <ele>1112.519</ele>
        <time>2015-07-01T10:13:16Z</time>
      </trkpt>
      <trkpt lat="42.11625" lon="9.11192">
        <ele>1112.589</ele>
        <time>2015-07-01T10:13:31Z</time>
      </trkpt>
      <trkpt lat="42.11635" lon="9.11201">
        <ele>1111.853</ele>
        <time>2015-07-01T10:13:48Z</time>
      </trkpt>
      <trkpt lat="42.1164" lon="9.11212">
        <ele>1111.745</ele>
        <time>2015-07-01T10:14:05Z</time>
      </trkpt>
      <trkpt lat="42.11644" lon="9.11224">
        <ele>1111.038</ele>
        <time>2015-07-01T10:14:19Z</time>
      </trkpt>
      <trkpt lat="42.11652" lon="9.11232">
        <ele>1111.053</ele>
        <time>2015-07-01T10:14:33Z</time>
      </trkpt>
      <trkpt lat="42.11653" lon="9.11241">
        <ele>1111.374</ele>
        <time>2015-07-01T10:14:45Z</time>
      </trkpt>
      <trkpt lat="42.11644" lon="9.1125">
        <ele>1112.11</ele>
        <time>2015-07-01T10:15:03Z</time>
      </trkpt>
      <trkpt lat="42.11644" lon="9.1125">
        <ele>1112.748</ele>
        <time>2015-07-01T10:15:56Z</time>
      </trkpt>
      <trkpt lat="42.11654" lon="9.11245">
        <ele>1112.978</ele>
        <time>2015-07-01T10:16:07Z</time>
      </trkpt>
      <trkpt lat="42.11656" lon="9.11253">
        <ele>1113.47</ele>
        <time>2015-07-01T10:16:22Z</time>
      </trkpt>
      <trkpt lat="42.11659" lon="9.11266">
        <ele>1113.364</ele>
        <time>2015-07-01T10:16:34Z</time>
      </trkpt>
      <trkpt lat="42.11668" lon="9.1128">
        <ele>1113.078</ele>
        <time>2015-07-01T10:16:46Z</time>
      </trkpt>
      <trkpt lat="42.11674" lon="9.11288">
        <ele>1113.073</ele>
        <time>2015-07-01T10:16:52Z</time>
      </trkpt>
      <trkpt lat="42.11676" lon="9.11301">
        <ele>1112.393</ele>
        <time>2015-07-01T10:17:05Z</time>
      </trkpt>
      <trkpt lat="42.1168" lon="9.11312">
        <ele>1112.198</ele>
        <time>2015-07-01T10:17:23Z</time>
      </trkpt>
      <trkpt lat="42.11689" lon="9.11323">
        <ele>1112.297</ele>
        <time>2015-07-01T10:17:32Z</time>
      </trkpt>
      <trkpt lat="42.11699" lon="9.11334">
        <ele>1111.23</ele>
        <time>2015-07-01T10:17:41Z</time>
      </trkpt>
      <trkpt lat="42.11707" lon="9.11352">
        <ele>1110.498</ele>
        <time>2015-07-01T10:17:53Z</time>
      </trkpt>
      <trkpt lat="42.11718" lon="9.11374">
        <ele>1108.432</ele>
        <time>2015-07-01T10:18:09Z</time>
      </trkpt>
      <trkpt lat="42.1172" lon="9.1139">
        <ele>1107.908</ele>
        <time>2015-07-01T10:18:20Z</time>
      </trkpt>
      <trkpt lat="42.11716" lon="9.11407">
        <ele>1106.267</ele>
        <time>2015-07-01T10:18:35Z</time>
      </trkpt>
      <trkpt lat="42.11731" lon="9.11433">
        <ele>1104.615</ele>
        <time>2015-07-01T10:18:54Z</time>
      </trkpt>
      <trkpt lat="42.11734" lon="9.11446">
        <ele>1103.366</ele>
        <time>2015-07-01T10:19:06Z</time>
      </trkpt>
      <trkpt lat="42.11736" lon="9.11462">
        <ele>1101.196</ele>
        <time>2015-07-01T10:19:24Z</time>
      </trkpt>
      <trkpt lat="42.11748" lon="9.11492">
        <ele>1100.589</ele>
        <time>2015-07-01T10:19:45Z</time>
      </trkpt>
      <trkpt lat="42.11749" lon="9.11519">
        <ele>1100.906</ele>
        <time>2015-07-01T10:20:09Z</time>
      </trkpt>
      <trkpt lat="42.11749" lon="9.11535">
        <ele>1099.657</ele>
        <time>2015-07-01T10:20:22Z</time>
      </trkpt>
      <trkpt lat="42.11746" lon="9.11548">
        <ele>1098.823</ele>
        <time>2015-07-01T10:20:31Z</time>
      </trkpt>
      <trkpt lat="42.11744" lon="9.11565">
        <ele>1097.502</ele>
        <time>2015-07-01T10:20:41Z</time>
      </trkpt>
      <trkpt lat="42.11736" lon="9.1158">
        <ele>1096.807</ele>
        <time>2015-07-01T10:20:52Z</time>
      </trkpt>
      <trkpt lat="42.1173" lon="9.116">
        <ele>1094.962</ele>
        <time>2015-07-01T10:21:05Z</time>
      </trkpt>
      <trkpt lat="42.1173" lon="9.11615">
        <ele>1094.437</ele>
        <time>2015-07-01T10:21:20Z</time>
      </trkpt>
      <trkpt lat="42.11735" lon="9.11629">
        <ele>1093.425</ele>
        <time>2015-07-01T10:21:32Z</time>
      </trkpt>
      <trkpt lat="42.11733" lon="9.11647">
        <ele>1092.112</ele>
        <time>2015-07-01T10:21:43Z</time>
      </trkpt>
      <trkpt lat="42.11723" lon="9.11654">
        <ele>1091.076</ele>
        <time>2015-07-01T10:21:50Z</time>
      </trkpt>
      <trkpt lat="42.1172" lon="9.11655">
        <ele>1090.652</ele>
        <time>2015-07-01T10:21:53Z</time>
      </trkpt>
      <trkpt lat="42.11717" lon="9.11663">
        <ele>1089.416</ele>
        <time>2015-07-01T10:22:06Z</time>
      </trkpt>
      <trkpt lat="42.11714" lon="9.11671">
        <ele>1088.895</ele>
        <time>2015-07-01T10:22:18Z</time>
      </trkpt>
      <trkpt lat="42.11717" lon="9.11684">
        <ele>1087.446</ele>
        <time>2015-07-01T10:22:29Z</time>
      </trkpt>
      <trkpt lat="42.11729" lon="9.11705">
        <ele>1087.065</ele>
        <time>2015-07-01T10:22:49Z</time>
      </trkpt>
      <trkpt lat="42.1174" lon="9.1172">
        <ele>1086.591</ele>
        <time>2015-07-01T10:23:05Z</time>
      </trkpt>
      <trkpt lat="42.11746" lon="9.11733">
        <ele>1087.182</ele>
        <time>2015-07-01T10:23:16Z</time>
      </trkpt>
      <trkpt lat="42.11748" lon="9.11737">
        <ele>1086.685</ele>
        <time>2015-07-01T10:23:27Z</time>
      </trkpt>
      <trkpt lat="42.11749" lon="9.11744">
        <ele>1086.803</ele>
        <time>2015-07-01T10:23:32Z</time>
      </trkpt>
      <trkpt lat="42.1175" lon="9.11753">
        <ele>1085.707</ele>
        <time>2015-07-01T10:23:37Z</time>
      </trkpt>
      <trkpt lat="42.11751" lon="9.11779">
        <ele>1083.203</ele>
        <time>2015-07-01T10:23:51Z</time>
      </trkpt>
      <trkpt lat="42.11754" lon="9.11789">
        <ele>1083.723</ele>
        <time>2015-07-01T10:24:01Z</time>
      </trkpt>
      <trkpt lat="42.11753" lon="9.11797">
        <ele>1084.542</ele>
        <time>2015-07-01T10:24:12Z</time>
      </trkpt>
      <trkpt lat="42.11748" lon="9.11809">
        <ele>1081.568</ele>
        <time>2015-07-01T10:24:28Z</time>
      </trkpt>
      <trkpt lat="42.11752" lon="9.11828">
        <ele>1081.392</ele>
        <time>2015-07-01T10:24:45Z</time>
      </trkpt>
      <trkpt lat="42.11757" lon="9.11843">
        <ele>1080.303</ele>
        <time>2015-07-01T10:24:57Z</time>
      </trkpt>
      <trkpt lat="42.11758" lon="9.11858">
        <ele>1080.752</ele>
        <time>2015-07-01T10:25:05Z</time>
      </trkpt>
      <trkpt lat="42.11761" lon="9.11881">
        <ele>1080.58</ele>
        <time>2015-07-01T10:25:21Z</time>
      </trkpt>
      <trkpt lat="42.11759" lon="9.11892">
        <ele>1080.859</ele>
        <time>2015-07-01T10:25:28Z</time>
      </trkpt>
      <trkpt lat="42.11759" lon="9.11898">
        <ele>1080.843</ele>
        <time>2015-07-01T10:25:32Z</time>
      </trkpt>
      <trkpt lat="42.11763" lon="9.11906">
        <ele>1079.356</ele>
        <time>2015-07-01T10:25:44Z</time>
      </trkpt>
      <trkpt lat="42.11772" lon="9.11917">
        <ele>1078.046</ele>
        <time>2015-07-01T10:25:55Z</time>
      </trkpt>
      <trkpt lat="42.11779" lon="9.11933">
        <ele>1077.594</ele>
        <time>2015-07-01T10:26:06Z</time>
      </trkpt>
      <trkpt lat="42.11785" lon="9.11951">
        <ele>1077.232</ele>
        <time>2015-07-01T10:26:17Z</time>
      </trkpt>
      <trkpt lat="42.11789" lon="9.11967">
        <ele>1076.593</ele>
        <time>2015-07-01T10:26:30Z</time>
      </trkpt>
      <trkpt lat="42.1179" lon="9.11986">
        <ele>1075.285</ele>
        <time>2015-07-01T10:26:44Z</time>
      </trkpt>
      <trkpt lat="42.11793" lon="9.11994">
        <ele>1074.745</ele>
        <time>2015-07-01T10:26:50Z</time>
      </trkpt>
      <trkpt lat="42.11794" lon="9.12003">
        <ele>1074.794</ele>
        <time>2015-07-01T10:27:00Z</time>
      </trkpt>
      <trkpt lat="42.118" lon="9.12016">
        <ele>1073.352</ele>
        <time>2015-07-01T10:27:14Z</time>
      </trkpt>
      <trkpt lat="42.11815" lon="9.12028">
        <ele>1072.21</ele>
        <time>2015-07-01T10:27:27Z</time>
      </trkpt>
      <trkpt lat="42.11822" lon="9.12033">
        <ele>1072.124</ele>
        <time>2015-07-01T10:27:38Z</time>
      </trkpt>
      <trkpt lat="42.11831" lon="9.12041">
        <ele>1071.235</ele>
        <time>2015-07-01T10:27:49Z</time>
      </trkpt>
      <trkpt lat="42.11843" lon="9.12054">
        <ele>1070.503</ele>
        <time>2015-07-01T10:28:06Z</time>
      </trkpt>
      <trkpt lat="42.11851" lon="9.12063">
        <ele>1069.974</ele>
        <time>2015-07-01T10:28:15Z</time>
      </trkpt>
      <trkpt lat="42.11861" lon="9.12072">
        <ele>1069.708</ele>
        <time>2015-07-01T10:28:26Z</time>
      </trkpt>
      <trkpt lat="42.11872" lon="9.12079">
        <ele>1068.502</ele>
        <time>2015-07-01T10:28:38Z</time>
      </trkpt>
      <trkpt lat="42.11882" lon="9.12084">
        <ele>1068.11</ele>
        <time>2015-07-01T10:28:48Z</time>
      </trkpt>
      <trkpt lat="42.11887" lon="9.12092">
        <ele>1067.661</ele>
        <time>2015-07-01T10:28:57Z</time>
      </trkpt>
      <trkpt lat="42.11895" lon="9.1211">
        <ele>1066.603</ele>
        <time>2015-07-01T10:29:11Z</time>
      </trkpt>
      <trkpt lat="42.11906" lon="9.12127">
        <ele>1064.661</ele>
        <time>2015-07-01T10:29:23Z</time>
      </trkpt>
      <trkpt lat="42.11914" lon="9.12147">
        <ele>1063.106</ele>
        <time>2015-07-01T10:29:36Z</time>
      </trkpt>
      <trkpt lat="42.11915" lon="9.12157">
        <ele>1062.706</ele>
        <time>2015-07-01T10:29:46Z</time>
      </trkpt>
      <trkpt lat="42.11917" lon="9.12167">
        <ele>1061.682</ele>
        <time>2015-07-01T10:29:53Z</time>
      </trkpt>
      <trkpt lat="42.11923" lon="9.12176">
        <ele>1060.401</ele>
        <time>2015-07-01T10:30:00Z</time>
      </trkpt>
      <trkpt lat="42.11922" lon="9.12195">
        <ele>1059.855</ele>
        <time>2015-07-01T10:30:16Z</time>
      </trkpt>
      <trkpt lat="42.11924" lon="9.12201">
        <ele>1059.311</ele>
        <time>2015-07-01T10:30:21Z</time>
      </trkpt>
      <trkpt lat="42.1193" lon="9.1222">
        <ele>1058.152</ele>
        <time>2015-07-01T10:30:35Z</time>
      </trkpt>
      <trkpt lat="42.11936" lon="9.12239">
        <ele>1057.823</ele>
        <time>2015-07-01T10:30:48Z</time>
      </trkpt>
      <trkpt lat="42.1194" lon="9.12249">
        <ele>1056.025</ele>
        <time>2015-07-01T10:30:59Z</time>
      </trkpt>
      <trkpt lat="42.1194" lon="9.1225">
        <ele>1057.134</ele>
        <time>2015-07-01T10:31:00Z</time>
      </trkpt>
      <trkpt lat="42.11947" lon="9.12262">
        <ele>1054.393</ele>
        <time>2015-07-01T10:31:12Z</time>
      </trkpt>
      <trkpt lat="42.11952" lon="9.12276">
        <ele>1052.441</ele>
        <time>2015-07-01T10:31:28Z</time>
      </trkpt>
      <trkpt lat="42.11953" lon="9.1228">
        <ele>1051.649</ele>
        <time>2015-07-01T10:31:32Z</time>
      </trkpt>
      <trkpt lat="42.11964" lon="9.12286">
        <ele>1051.312</ele>
        <time>2015-07-01T10:31:41Z</time>
      </trkpt>
      <trkpt lat="42.11975" lon="9.1229">
        <ele>1050.162</ele>
        <time>2015-07-01T10:31:53Z</time>
      </trkpt>
      <trkpt lat="42.11985" lon="9.12295">
        <ele>1049.722</ele>
        <time>2015-07-01T10:32:04Z</time>
      </trkpt>
      <trkpt lat="42.11994" lon="9.12305">
        <ele>1047.971</ele>
        <time>2015-07-01T10:32:16Z</time>
      </trkpt>
      <trkpt lat="42.12008" lon="9.1232">
        <ele>1046.141</ele>
        <time>2015-07-01T10:32:33Z</time>
      </trkpt>
      <trkpt lat="42.12024" lon="9.12335">
        <ele>1045.213</ele>
        <time>2015-07-01T10:32:49Z</time>
      </trkpt>
      <trkpt lat="42.12034" lon="9.12346">
        <ele>1044.801</ele>
        <time>2015-07-01T10:33:02Z</time>
      </trkpt>
      <trkpt lat="42.12035" lon="9.12356">
        <ele>1043.327</ele>
        <time>2015-07-01T10:33:16Z</time>
      </trkpt>
      <trkpt lat="42.12042" lon="9.12364">
        <ele>1042.014</ele>
        <time>2015-07-01T10:33:27Z</time>
      </trkpt>
      <trkpt lat="42.12044" lon="9.12367">
        <ele>1042.157</ele>
        <time>2015-07-01T10:33:31Z</time>
      </trkpt>
      <trkpt lat="42.12054" lon="9.12378">
        <ele>1041.421</ele>
        <time>2015-07-01T10:33:41Z</time>
      </trkpt>
      <trkpt lat="42.1206" lon="9.12389">
        <ele>1040.793</ele>
        <time>2015-07-01T10:33:50Z</time>
      </trkpt>
      <trkpt lat="42.12065" lon="9.12404">
        <ele>1039.401</ele>
        <time>2015-07-01T10:34:03Z</time>
      </trkpt>
      <trkpt lat="42.12069" lon="9.12427">
        <ele>1038.207</ele>
        <time>2015-07-01T10:34:20Z</time>
      </trkpt>
      <trkpt lat="42.12073" lon="9.12445">
        <ele>1036.928</ele>
        <time>2015-07-01T10:34:35Z</time>
      </trkpt>
      <trkpt lat="42.12075" lon="9.12451">
        <ele>1036.657</ele>
        <time>2015-07-01T10:34:40Z</time>
      </trkpt>
      <trkpt lat="42.12079" lon="9.12466">
        <ele>1036.084</ele>
        <time>2015-07-01T10:34:53Z</time>
      </trkpt>
      <trkpt lat="42.1208" lon="9.12473">
        <ele>1035.829</ele>
        <time>2015-07-01T10:34:58Z</time>
      </trkpt>
      <trkpt lat="42.12085" lon="9.12488">
        <ele>1034.236</ele>
        <time>2015-07-01T10:35:10Z</time>
      </trkpt>
      <trkpt lat="42.12093" lon="9.12507">
        <ele>1032.877</ele>
        <time>2015-07-01T10:35:24Z</time>
      </trkpt>
      <trkpt lat="42.12091" lon="9.12522">
        <ele>1031.928</ele>
        <time>2015-07-01T10:35:34Z</time>
      </trkpt>
      <trkpt lat="42.12079" lon="9.12531">
        <ele>1029.148</ele>
        <time>2015-07-01T10:35:49Z</time>
      </trkpt>
      <trkpt lat="42.1207" lon="9.12537">
        <ele>1028.141</ele>
        <time>2015-07-01T10:36:00Z</time>
      </trkpt>
      <trkpt lat="42.12061" lon="9.12548">
        <ele>1025.635</ele>
        <time>2015-07-01T10:36:15Z</time>
      </trkpt>
      <trkpt lat="42.12056" lon="9.12568">
        <ele>1022.641</ele>
        <time>2015-07-01T10:36:33Z</time>
      </trkpt>
      <trkpt lat="42.12056" lon="9.12576">
        <ele>1022.461</ele>
        <time>2015-07-01T10:36:45Z</time>
      </trkpt>
      <trkpt lat="42.12055" lon="9.12589">
        <ele>1021.279</ele>
        <time>2015-07-01T10:37:07Z</time>
      </trkpt>
      <trkpt lat="42.12056" lon="9.12592">
        <ele>1021.649</ele>
        <time>2015-07-01T10:37:11Z</time>
      </trkpt>
      <trkpt lat="42.12059" lon="9.12601">
        <ele>1020.638</ele>
        <time>2015-07-01T10:37:17Z</time>
      </trkpt>
      <trkpt lat="42.12067" lon="9.12623">
        <ele>1018.982</ele>
        <time>2015-07-01T10:37:33Z</time>
      </trkpt>
      <trkpt lat="42.12071" lon="9.12636">
        <ele>1018.145</ele>
        <time>2015-07-01T10:37:46Z</time>
      </trkpt>
      <trkpt lat="42.12076" lon="9.12645">
        <ele>1017.17</ele>
        <time>2015-07-01T10:37:56Z</time>
      </trkpt>
      <trkpt lat="42.1208" lon="9.12666">
        <ele>1015.236</ele>
        <time>2015-07-01T10:38:12Z</time>
      </trkpt>
      <trkpt lat="42.12085" lon="9.12686">
        <ele>1013.908</ele>
        <time>2015-07-01T10:38:27Z</time>
      </trkpt>
      <trkpt lat="42.12093" lon="9.12705">
        <ele>1013.323</ele>
        <time>2015-07-01T10:38:40Z</time>
      </trkpt>
      <trkpt lat="42.121" lon="9.12725">
        <ele>1011.993</ele>
        <time>2015-07-01T10:38:56Z</time>
      </trkpt>
      <trkpt lat="42.12105" lon="9.12739">
        <ele>1010.133</ele>
        <time>2015-07-01T10:39:10Z</time>
      </trkpt>
      <trkpt lat="42.12108" lon="9.12744">
        <ele>1009.717</ele>
        <time>2015-07-01T10:39:14Z</time>
      </trkpt>
      <trkpt lat="42.12118" lon="9.12754">
        <ele>1007.877</ele>
        <time>2015-07-01T10:39:27Z</time>
      </trkpt>
      <trkpt lat="42.12131" lon="9.12764">
        <ele>1007.074</ele>
        <time>2015-07-01T10:39:43Z</time>
      </trkpt>
      <trkpt lat="42.12147" lon="9.12775">
        <ele>1006.38</ele>
        <time>2015-07-01T10:39:59Z</time>
      </trkpt>
      <trkpt lat="42.12164" lon="9.12782">
        <ele>1005.432</ele>
        <time>2015-07-01T10:40:15Z</time>
      </trkpt>
      <trkpt lat="42.12165" lon="9.12783">
        <ele>1005.362</ele>
        <time>2015-07-01T10:40:16Z</time>
      </trkpt>
      <trkpt lat="42.12176" lon="9.12802">
        <ele>1004.209</ele>
        <time>2015-07-01T10:40:33Z</time>
      </trkpt>
      <trkpt lat="42.12186" lon="9.12818">
        <ele>1003.107</ele>
        <time>2015-07-01T10:40:48Z</time>
      </trkpt>
      <trkpt lat="42.12197" lon="9.12835">
        <ele>1001.726</ele>
        <time>2015-07-01T10:41:04Z</time>
      </trkpt>
      <trkpt lat="42.1221" lon="9.12848">
        <ele>1001.323</ele>
        <time>2015-07-01T10:41:17Z</time>
      </trkpt>
      <trkpt lat="42.12233" lon="9.12852">
        <ele>1000.029</ele>
        <time>2015-07-01T10:41:39Z</time>
      </trkpt>
      <trkpt lat="42.1225" lon="9.12852">
        <ele>999.035</ele>
        <time>2015-07-01T10:41:54Z</time>
      </trkpt>
      <trkpt lat="42.12266" lon="9.12856">
        <ele>998.697</ele>
        <time>2015-07-01T10:42:10Z</time>
      </trkpt>
      <trkpt lat="42.12285" lon="9.12856">
        <ele>998.049</ele>
        <time>2015-07-01T10:42:29Z</time>
      </trkpt>
      <trkpt lat="42.12305" lon="9.12849">
        <ele>996.604</ele>
        <time>2015-07-01T10:42:47Z</time>
      </trkpt>
      <trkpt lat="42.12323" lon="9.1284">
        <ele>996.483</ele>
        <time>2015-07-01T10:43:04Z</time>
      </trkpt>
      <trkpt lat="42.12339" lon="9.1283">
        <ele>995.992</ele>
        <time>2015-07-01T10:43:19Z</time>
      </trkpt>
      <trkpt lat="42.12356" lon="9.12822">
        <ele>994.489</ele>
        <time>2015-07-01T10:43:36Z</time>
      </trkpt>
      <trkpt lat="42.12359" lon="9.12821">
        <ele>994.197</ele>
        <time>2015-07-01T10:43:38Z</time>
      </trkpt>
      <trkpt lat="42.12379" lon="9.12814">
        <ele>993.526</ele>
        <time>2015-07-01T10:43:54Z</time>
      </trkpt>
      <trkpt lat="42.12392" lon="9.12809">
        <ele>991.836</ele>
        <time>2015-07-01T10:44:08Z</time>
      </trkpt>
      <trkpt lat="42.12412" lon="9.1281">
        <ele>991.014</ele>
        <time>2015-07-01T10:44:24Z</time>
      </trkpt>
      <trkpt lat="42.12432" lon="9.12825">
        <ele>990.894</ele>
        <time>2015-07-01T10:44:40Z</time>
      </trkpt>
      <trkpt lat="42.1244" lon="9.12832">
        <ele>989.508</ele>
        <time>2015-07-01T10:44:50Z</time>
      </trkpt>
      <trkpt lat="42.12452" lon="9.12839">
        <ele>988.761</ele>
        <time>2015-07-01T10:45:02Z</time>
      </trkpt>
      <trkpt lat="42.12456" lon="9.12842">
        <ele>988.73</ele>
        <time>2015-07-01T10:45:06Z</time>
      </trkpt>
      <trkpt lat="42.12482" lon="9.12853">
        <ele>987.564</ele>
        <time>2015-07-01T10:45:27Z</time>
      </trkpt>
      <trkpt lat="42.12498" lon="9.12861">
        <ele>986.593</ele>
        <time>2015-07-01T10:45:43Z</time>
      </trkpt>
      <trkpt lat="42.12522" lon="9.1287">
        <ele>985.569</ele>
        <time>2015-07-01T10:46:01Z</time>
      </trkpt>
      <trkpt lat="42.12542" lon="9.12879">
        <ele>984.017</ele>
        <time>2015-07-01T10:46:20Z</time>
      </trkpt>
      <trkpt lat="42.12561" lon="9.12885">
        <ele>982.399</ele>
        <time>2015-07-01T10:46:36Z</time>
      </trkpt>
      <trkpt lat="42.12572" lon="9.1289">
        <ele>980.681</ele>
        <time>2015-07-01T10:46:49Z</time>
      </trkpt>
      <trkpt lat="42.12592" lon="9.12898">
        <ele>979.644</ele>
        <time>2015-07-01T10:47:06Z</time>
      </trkpt>
      <trkpt lat="42.12619" lon="9.12904">
        <ele>979.051</ele>
        <time>2015-07-01T10:47:28Z</time>
      </trkpt>
      <trkpt lat="42.12644" lon="9.12906">
        <ele>977.952</ele>
        <time>2015-07-01T10:47:49Z</time>
      </trkpt>
      <trkpt lat="42.12649" lon="9.12915">
        <ele>975.782</ele>
        <time>2015-07-01T10:48:06Z</time>
      </trkpt>
      <trkpt lat="42.12643" lon="9.12926">
        <ele>973.896</ele>
        <time>2015-07-01T10:48:20Z</time>
      </trkpt>
      <trkpt lat="42.1264" lon="9.12936">
        <ele>970.891</ele>
        <time>2015-07-01T10:48:31Z</time>
      </trkpt>
      <trkpt lat="42.12635" lon="9.12948">
        <ele>969.839</ele>
        <time>2015-07-01T10:48:45Z</time>
      </trkpt>
      <trkpt lat="42.12632" lon="9.12962">
        <ele>969.32</ele>
        <time>2015-07-01T10:48:58Z</time>
      </trkpt>
      <trkpt lat="42.12633" lon="9.12965">
        <ele>969.378</ele>
        <time>2015-07-01T10:49:01Z</time>
      </trkpt>
      <trkpt lat="42.12634" lon="9.1297">
        <ele>969.181</ele>
        <time>2015-07-01T10:49:05Z</time>
      </trkpt>
      <trkpt lat="42.12644" lon="9.12981">
        <ele>969.603</ele>
        <time>2015-07-01T10:49:20Z</time>
      </trkpt>
      <trkpt lat="42.1265" lon="9.12997">
        <ele>971.607</ele>
        <time>2015-07-01T10:49:36Z</time>
      </trkpt>
      <trkpt lat="42.12654" lon="9.13007">
        <ele>971.735</ele>
        <time>2015-07-01T10:49:43Z</time>
      </trkpt>
      <trkpt lat="42.12643" lon="9.13028">
        <ele>970.074</ele>
        <time>2015-07-01T10:50:00Z</time>
      </trkpt>
      <trkpt lat="42.12632" lon="9.13045">
        <ele>969.404</ele>
        <time>2015-07-01T10:50:14Z</time>
      </trkpt>
      <trkpt lat="42.1263" lon="9.13047">
        <ele>969.313</ele>
        <time>2015-07-01T10:50:17Z</time>
      </trkpt>
      <trkpt lat="42.12615" lon="9.13059">
        <ele>969.33</ele>
        <time>2015-07-01T10:50:33Z</time>
      </trkpt>
      <trkpt lat="42.12596" lon="9.13068">
        <ele>969.249</ele>
        <time>2015-07-01T10:50:49Z</time>
      </trkpt>
      <trkpt lat="42.12581" lon="9.13072">
        <ele>971.085</ele>
        <time>2015-07-01T10:51:05Z</time>
      </trkpt>
      <trkpt lat="42.12567" lon="9.13078">
        <ele>972.985</ele>
        <time>2015-07-01T10:51:20Z</time>
      </trkpt>
      <trkpt lat="42.12558" lon="9.13084">
        <ele>971.411</ele>
        <time>2015-07-01T10:51:37Z</time>
      </trkpt>
      <trkpt lat="42.12561" lon="9.13092">
        <ele>970.99</ele>
        <time>2015-07-01T10:51:50Z</time>
      </trkpt>
      <trkpt lat="42.12562" lon="9.13095">
        <ele>970.461</ele>
        <time>2015-07-01T10:51:54Z</time>
      </trkpt>
      <trkpt lat="42.1257" lon="9.13104">
        <ele>968.938</ele>
        <time>2015-07-01T10:52:06Z</time>
      </trkpt>
      <trkpt lat="42.12573" lon="9.13111">
        <ele>968.903</ele>
        <time>2015-07-01T10:52:21Z</time>
      </trkpt>
      <trkpt lat="42.12571" lon="9.13117">
        <ele>968.724</ele>
        <time>2015-07-01T10:52:38Z</time>
      </trkpt>
      <trkpt lat="42.12585" lon="9.13112">
        <ele>968.53</ele>
        <time>2015-07-01T10:53:08Z</time>
      </trkpt>
      <trkpt lat="42.12575" lon="9.13122">
        <ele>968.484</ele>
        <time>2015-07-01T10:53:55Z</time>
      </trkpt>
      <trkpt lat="42.12571" lon="9.13111">
        <ele>968.787</ele>
        <time>2015-07-01T10:55:03Z</time>
      </trkpt>
      <trkpt lat="42.12572" lon="9.13112">
        <ele>969.064</ele>
        <time>2015-07-01T10:55:33Z</time>
      </trkpt>
      <trkpt lat="42.12591" lon="9.13116">
        <ele>969.088</ele>
        <time>2015-07-01T10:56:06Z</time>
      </trkpt>
      <trkpt lat="42.12585" lon="9.13117">
        <ele>968.74</ele>
        <time>2015-07-01T10:56:25Z</time>
      </trkpt>
      <trkpt lat="42.12579" lon="9.13119">
        <ele>968.715</ele>
        <time>2015-07-01T10:56:37Z</time>
      </trkpt>
      <trkpt lat="42.12584" lon="9.13112">
        <ele>967.873</ele>
        <time>2015-07-01T10:56:50Z</time>
      </trkpt>
      <trkpt lat="42.12593" lon="9.13112">
        <ele>968.049</ele>
        <time>2015-07-01T10:57:01Z</time>
      </trkpt>
      <trkpt lat="42.126" lon="9.13111">
        <ele>967.639</ele>
        <time>2015-07-01T10:57:09Z</time>
      </trkpt>
      <trkpt lat="42.12602" lon="9.1311">
        <ele>968.008</ele>
        <time>2015-07-01T10:57:11Z</time>
      </trkpt>
      <trkpt lat="42.12606" lon="9.1311">
        <ele>967.639</ele>
        <time>2015-07-01T10:57:13Z</time>
      </trkpt>
      <trkpt lat="42.12621" lon="9.13104">
        <ele>968.692</ele>
        <time>2015-07-01T10:57:28Z</time>
      </trkpt>
      <trkpt lat="42.1263" lon="9.13104">
        <ele>967.698</ele>
        <time>2015-07-01T10:57:39Z</time>
      </trkpt>
      <trkpt lat="42.12643" lon="9.13112">
        <ele>968.568</ele>
        <time>2015-07-01T10:57:54Z</time>
      </trkpt>
      <trkpt lat="42.12663" lon="9.13126">
        <ele>966.407</ele>
        <time>2015-07-01T10:58:12Z</time>
      </trkpt>
      <trkpt lat="42.12679" lon="9.13151">
        <ele>966.08</ele>
        <time>2015-07-01T10:58:29Z</time>
      </trkpt>
      <trkpt lat="42.12687" lon="9.13168">
        <ele>965.097</ele>
        <time>2015-07-01T10:58:40Z</time>
      </trkpt>
      <trkpt lat="42.12691" lon="9.13204">
        <ele>964.495</ele>
        <time>2015-07-01T10:59:03Z</time>
      </trkpt>
      <trkpt lat="42.12688" lon="9.13227">
        <ele>963.588</ele>
        <time>2015-07-01T10:59:18Z</time>
      </trkpt>
      <trkpt lat="42.12692" lon="9.13238">
        <ele>962.595</ele>
        <time>2015-07-01T10:59:26Z</time>
      </trkpt>
      <trkpt lat="42.12694" lon="9.13243">
        <ele>962.453</ele>
        <time>2015-07-01T10:59:30Z</time>
      </trkpt>
      <trkpt lat="42.12703" lon="9.13263">
        <ele>961.474</ele>
        <time>2015-07-01T10:59:45Z</time>
      </trkpt>
      <trkpt lat="42.12704" lon="9.13267">
        <ele>961.698</ele>
        <time>2015-07-01T10:59:48Z</time>
      </trkpt>
      <trkpt lat="42.12707" lon="9.13287">
        <ele>960.663</ele>
        <time>2015-07-01T11:00:06Z</time>
      </trkpt>
      <trkpt lat="42.12709" lon="9.13288">
        <ele>960.773</ele>
        <time>2015-07-01T11:00:25Z</time>
      </trkpt>
      <trkpt lat="42.12713" lon="9.13281">
        <ele>959.612</ele>
        <time>2015-07-01T11:00:36Z</time>
      </trkpt>
      <trkpt lat="42.12716" lon="9.13269">
        <ele>958.857</ele>
        <time>2015-07-01T11:00:43Z</time>
      </trkpt>
      <trkpt lat="42.12722" lon="9.13257">
        <ele>957.257</ele>
        <time>2015-07-01T11:00:56Z</time>
      </trkpt>
      <trkpt lat="42.12727" lon="9.13234">
        <ele>955.951</ele>
        <time>2015-07-01T11:01:13Z</time>
      </trkpt>
      <trkpt lat="42.1273" lon="9.13223">
        <ele>953.287</ele>
        <time>2015-07-01T11:01:22Z</time>
      </trkpt>
      <trkpt lat="42.12734" lon="9.13223">
        <ele>953.691</ele>
        <time>2015-07-01T11:01:25Z</time>
      </trkpt>
      <trkpt lat="42.12736" lon="9.13227">
        <ele>953.134</ele>
        <time>2015-07-01T11:01:29Z</time>
      </trkpt>
      <trkpt lat="42.12746" lon="9.13258">
        <ele>952.167</ele>
        <time>2015-07-01T11:01:52Z</time>
      </trkpt>
      <trkpt lat="42.12753" lon="9.13277">
        <ele>951.416</ele>
        <time>2015-07-01T11:02:05Z</time>
      </trkpt>
      <trkpt lat="42.12756" lon="9.1329">
        <ele>951.266</ele>
        <time>2015-07-01T11:02:21Z</time>
      </trkpt>
      <trkpt lat="42.1276" lon="9.13302">
        <ele>950.255</ele>
        <time>2015-07-01T11:02:31Z</time>
      </trkpt>
      <trkpt lat="42.12768" lon="9.13327">
        <ele>947.249</ele>
        <time>2015-07-01T11:02:51Z</time>
      </trkpt>
      <trkpt lat="42.12782" lon="9.13312">
        <ele>944.201</ele>
        <time>2015-07-01T11:03:09Z</time>
      </trkpt>
      <trkpt lat="42.12782" lon="9.13291">
        <ele>943.568</ele>
        <time>2015-07-01T11:03:27Z</time>
      </trkpt>
      <trkpt lat="42.1278" lon="9.13271">
        <ele>940.935</ele>
        <time>2015-07-01T11:03:45Z</time>
      </trkpt>
      <trkpt lat="42.12782" lon="9.13265">
        <ele>940.202</ele>
        <time>2015-07-01T11:03:49Z</time>
      </trkpt>
      <trkpt lat="42.12796" lon="9.13245">
        <ele>939.916</ele>
        <time>2015-07-01T11:04:11Z</time>
      </trkpt>
      <trkpt lat="42.12797" lon="9.13244">
        <ele>939.223</ele>
        <time>2015-07-01T11:04:28Z</time>
      </trkpt>
      <trkpt lat="42.12796" lon="9.1324">
        <ele>938.921</ele>
        <time>2015-07-01T11:05:02Z</time>
      </trkpt>
      <trkpt lat="42.12794" lon="9.13239">
        <ele>936.816</ele>
        <time>2015-07-01T11:05:20Z</time>
      </trkpt>
      <trkpt lat="42.12794" lon="9.13247">
        <ele>938.568</ele>
        <time>2015-07-01T11:05:36Z</time>
      </trkpt>
      <trkpt lat="42.12776" lon="9.13253">
        <ele>936.473</ele>
        <time>2015-07-01T11:06:36Z</time>
      </trkpt>
      <trkpt lat="42.12778" lon="9.1325">
        <ele>935.648</ele>
        <time>2015-07-01T11:07:09Z</time>
      </trkpt>
      <trkpt lat="42.12786" lon="9.13251">
        <ele>935.078</ele>
        <time>2015-07-01T11:07:41Z</time>
      </trkpt>
      <trkpt lat="42.12792" lon="9.13249">
        <ele>933.572</ele>
        <time>2015-07-01T11:08:40Z</time>
      </trkpt>
      <trkpt lat="42.12793" lon="9.1325">
        <ele>933.247</ele>
        <time>2015-07-01T11:09:13Z</time>
      </trkpt>
      <trkpt lat="42.1279" lon="9.13245">
        <ele>933.554</ele>
        <time>2015-07-01T11:09:49Z</time>
      </trkpt>
      <trkpt lat="42.12791" lon="9.13246">
        <ele>933.34</ele>
        <time>2015-07-01T11:10:20Z</time>
      </trkpt>
      <trkpt lat="42.12785" lon="9.13244">
        <ele>930.749</ele>
        <time>2015-07-01T11:11:53Z</time>
      </trkpt>
      <trkpt lat="42.12789" lon="9.13246">
        <ele>929.831</ele>
        <time>2015-07-01T11:12:35Z</time>
      </trkpt>
      <trkpt lat="42.12782" lon="9.13258">
        <ele>928.856</ele>
        <time>2015-07-01T11:13:54Z</time>
      </trkpt>
      <trkpt lat="42.12788" lon="9.1325">
        <ele>929.027</ele>
        <time>2015-07-01T11:14:37Z</time>
      </trkpt>
      <trkpt lat="42.12785" lon="9.13251">
        <ele>928.87</ele>
        <time>2015-07-01T11:15:06Z</time>
      </trkpt>
      <trkpt lat="42.12783" lon="9.13253">
        <ele>929.63</ele>
        <time>2015-07-01T11:15:46Z</time>
      </trkpt>
      <trkpt lat="42.12782" lon="9.1326">
        <ele>929.278</ele>
        <time>2015-07-01T11:16:47Z</time>
      </trkpt>
      <trkpt lat="42.12788" lon="9.13255">
        <ele>929.379</ele>
        <time>2015-07-01T11:17:39Z</time>
      </trkpt>
      <trkpt lat="42.12785" lon="9.13261">
        <ele>929.336</ele>
        <time>2015-07-01T11:18:29Z</time>
      </trkpt>
      <trkpt lat="42.12791" lon="9.13247">
        <ele>929.426</ele>
        <time>2015-07-01T11:19:43Z</time>
      </trkpt>
      <trkpt lat="42.12796" lon="9.1324">
        <ele>928.516</ele>
        <time>2015-07-01T11:21:14Z</time>
      </trkpt>
      <trkpt lat="42.12799" lon="9.13243">
        <ele>928.183</ele>
        <time>2015-07-01T11:22:26Z</time>
      </trkpt>
      <trkpt lat="42.12788" lon="9.13251">
        <ele>926.843</ele>
        <time>2015-07-01T11:25:11Z</time>
      </trkpt>
      <trkpt lat="42.12805" lon="9.13242">
        <ele>925.782</ele>
        <time>2015-07-01T11:26:06Z</time>
      </trkpt>
      <trkpt lat="42.12792" lon="9.1326">
        <ele>926.779</ele>
        <time>2015-07-01T11:26:48Z</time>
      </trkpt>
      <trkpt lat="42.12792" lon="9.13254">
        <ele>928.097</ele>
        <time>2015-07-01T11:27:38Z</time>
      </trkpt>
      <trkpt lat="42.12777" lon="9.13244">
        <ele>927.128</ele>
        <time>2015-07-01T11:28:40Z</time>
      </trkpt>
      <trkpt lat="42.12788" lon="9.13259">
        <ele>926.883</ele>
        <time>2015-07-01T11:29:29Z</time>
      </trkpt>
      <trkpt lat="42.12798" lon="9.13254">
        <ele>927.588</ele>
        <time>2015-07-01T11:30:38Z</time>
      </trkpt>
      <trkpt lat="42.1277" lon="9.13264">
        <ele>928.273</ele>
        <time>2015-07-01T11:31:30Z</time>
      </trkpt>
      <trkpt lat="42.12778" lon="9.13262">
        <ele>927.951</ele>
        <time>2015-07-01T11:32:01Z</time>
      </trkpt>
      <trkpt lat="42.12789" lon="9.13254">
        <ele>928.446</ele>
        <time>2015-07-01T11:32:45Z</time>
      </trkpt>
      <trkpt lat="42.12797" lon="9.13269">
        <ele>926.863</ele>
        <time>2015-07-01T11:33:15Z</time>
      </trkpt>
      <trkpt lat="42.12802" lon="9.13252">
        <ele>928.393</ele>
        <time>2015-07-01T11:33:38Z</time>
      </trkpt>
      <trkpt lat="42.12801" lon="9.1326">
        <ele>928.159</ele>
        <time>2015-07-01T11:34:25Z</time>
      </trkpt>
      <trkpt lat="42.12801" lon="9.13271">
        <ele>929.488</ele>
        <time>2015-07-01T11:35:01Z</time>
      </trkpt>
      <trkpt lat="42.12792" lon="9.13267">
        <ele>929.513</ele>
        <time>2015-07-01T11:35:27Z</time>
      </trkpt>
      <trkpt lat="42.12789" lon="9.13266">
        <ele>930.042</ele>
        <time>2015-07-01T11:36:01Z</time>
      </trkpt>
      <trkpt lat="42.12795" lon="9.13259">
        <ele>929.626</ele>
        <time>2015-07-01T11:36:25Z</time>
      </trkpt>
      <trkpt lat="42.12795" lon="9.13257">
        <ele>930.762</ele>
        <time>2015-07-01T11:37:10Z</time>
      </trkpt>
      <trkpt lat="42.12795" lon="9.13249">
        <ele>930.11</ele>
        <time>2015-07-01T11:37:40Z</time>
      </trkpt>
      <trkpt lat="42.12798" lon="9.13253">
        <ele>931.368</ele>
        <time>2015-07-01T11:37:54Z</time>
      </trkpt>
      <trkpt lat="42.12809" lon="9.13258">
        <ele>929.819</ele>
        <time>2015-07-01T11:38:12Z</time>
      </trkpt>
      <trkpt lat="42.12819" lon="9.13265">
        <ele>928.099</ele>
        <time>2015-07-01T11:38:31Z</time>
      </trkpt>
      <trkpt lat="42.12824" lon="9.13272">
        <ele>927.324</ele>
        <time>2015-07-01T11:38:44Z</time>
      </trkpt>
      <trkpt lat="42.12828" lon="9.13274">
        <ele>927.279</ele>
        <time>2015-07-01T11:38:59Z</time>
      </trkpt>
      <trkpt lat="42.12837" lon="9.13278">
        <ele>926.489</ele>
        <time>2015-07-01T11:39:22Z</time>
      </trkpt>
      <trkpt lat="42.12837" lon="9.13279">
        <ele>926.174</ele>
        <time>2015-07-01T11:39:37Z</time>
      </trkpt>
      <trkpt lat="42.1284" lon="9.13279">
        <ele>926.282</ele>
        <time>2015-07-01T11:39:47Z</time>
      </trkpt>
      <trkpt lat="42.12842" lon="9.13292">
        <ele>924.624</ele>
        <time>2015-07-01T11:41:22Z</time>
      </trkpt>
      <trkpt lat="42.12841" lon="9.13299">
        <ele>925.725</ele>
        <time>2015-07-01T11:43:07Z</time>
      </trkpt>
      <trkpt lat="42.12841" lon="9.13287">
        <ele>924.959</ele>
        <time>2015-07-01T11:46:15Z</time>
      </trkpt>
      <trkpt lat="42.12839" lon="9.13285">
        <ele>924.251</ele>
        <time>2015-07-01T11:47:34Z</time>
      </trkpt>
      <trkpt lat="42.12841" lon="9.13287">
        <ele>924.66</ele>
        <time>2015-07-01T11:49:04Z</time>
      </trkpt>
      <trkpt lat="42.12837" lon="9.13285">
        <ele>924.232</ele>
        <time>2015-07-01T11:49:33Z</time>
      </trkpt>
      <trkpt lat="42.12839" lon="9.13285">
        <ele>924.691</ele>
        <time>2015-07-01T11:51:08Z</time>
      </trkpt>
      <trkpt lat="42.12849" lon="9.13283">
        <ele>923.454</ele>
        <time>2015-07-01T11:52:23Z</time>
      </trkpt>
      <trkpt lat="42.12844" lon="9.13292">
        <ele>923.071</ele>
        <time>2015-07-01T11:53:02Z</time>
      </trkpt>
      <trkpt lat="42.1285" lon="9.13295">
        <ele>923.734</ele>
        <time>2015-07-01T11:53:30Z</time>
      </trkpt>
      <trkpt lat="42.12841" lon="9.13295">
        <ele>923.913</ele>
        <time>2015-07-01T11:54:11Z</time>
      </trkpt>
      <trkpt lat="42.12835" lon="9.13296">
        <ele>923.045</ele>
        <time>2015-07-01T11:54:50Z</time>
      </trkpt>
      <trkpt lat="42.12841" lon="9.13289">
        <ele>923.702</ele>
        <time>2015-07-01T11:56:00Z</time>
      </trkpt>
      <trkpt lat="42.12842" lon="9.13287">
        <ele>923.073</ele>
        <time>2015-07-01T12:00:15Z</time>
      </trkpt>
      <trkpt lat="42.12841" lon="9.13289">
        <ele>916.856</ele>
        <time>2015-07-01T12:00:34Z</time>
      </trkpt>
      <trkpt lat="42.12841" lon="9.13289">
        <ele>923.703</ele>
        <time>2015-07-01T12:00:35Z</time>
      </trkpt>
      <trkpt lat="42.12841" lon="9.13289">
        <ele>927.343</ele>
        <time>2015-07-01T12:00:38Z</time>
      </trkpt>
      <trkpt lat="42.1284" lon="9.13289">
        <ele>921.988</ele>
        <time>2015-07-01T12:00:39Z</time>
      </trkpt>
      <trkpt lat="42.1283" lon="9.13289">
        <ele>923.622</ele>
        <time>2015-07-01T12:01:29Z</time>
      </trkpt>
      <trkpt lat="42.1284" lon="9.13286">
        <ele>921.907</ele>
        <time>2015-07-01T12:03:09Z</time>
      </trkpt>
      <trkpt lat="42.12849" lon="9.13281">
        <ele>922.529</ele>
        <time>2015-07-01T12:03:50Z</time>
      </trkpt>
      <trkpt lat="42.12839" lon="9.13285">
        <ele>922.04</ele>
        <time>2015-07-01T12:04:41Z</time>
      </trkpt>
      <trkpt lat="42.12839" lon="9.13284">
        <ele>922.11</ele>
        <time>2015-07-01T12:05:11Z</time>
      </trkpt>
      <trkpt lat="42.12841" lon="9.13285">
        <ele>921.459</ele>
        <time>2015-07-01T12:06:16Z</time>
      </trkpt>
      <trkpt lat="42.1285" lon="9.13289">
        <ele>922.095</ele>
        <time>2015-07-01T12:08:19Z</time>
      </trkpt>
      <trkpt lat="42.12844" lon="9.13289">
        <ele>923.008</ele>
        <time>2015-07-01T12:09:00Z</time>
      </trkpt>
      <trkpt lat="42.12842" lon="9.13287">
        <ele>921.603</ele>
        <time>2015-07-01T12:10:03Z</time>
      </trkpt>
      <trkpt lat="42.12839" lon="9.13284">
        <ele>921.088</ele>
        <time>2015-07-01T12:11:31Z</time>
      </trkpt>
      <trkpt lat="42.12838" lon="9.13286">
        <ele>920.919</ele>
        <time>2015-07-01T12:12:06Z</time>
      </trkpt>
      <trkpt lat="42.12832" lon="9.13288">
        <ele>920.358</ele>
        <time>2015-07-01T12:12:52Z</time>
      </trkpt>
      <trkpt lat="42.12835" lon="9.13294">
        <ele>919.843</ele>
        <time>2015-07-01T12:15:34Z</time>
      </trkpt>
      <trkpt lat="42.12841" lon="9.13289">
        <ele>919.146</ele>
        <time>2015-07-01T12:16:17Z</time>
      </trkpt>
      <trkpt lat="42.12846" lon="9.13289">
        <ele>918.891</ele>
        <time>2015-07-01T12:17:31Z</time>
      </trkpt>
      <trkpt lat="42.12855" lon="9.13292">
        <ele>919.727</ele>
        <time>2015-07-01T12:17:54Z</time>
      </trkpt>
      <trkpt lat="42.12845" lon="9.13288">
        <ele>918.485</ele>
        <time>2015-07-01T12:22:20Z</time>
      </trkpt>
      <trkpt lat="42.12847" lon="9.13285">
        <ele>917.524</ele>
        <time>2015-07-01T12:27:38Z</time>
      </trkpt>
      <trkpt lat="42.12852" lon="9.13282">
        <ele>918.455</ele>
        <time>2015-07-01T12:29:18Z</time>
      </trkpt>
      <trkpt lat="42.12843" lon="9.13285">
        <ele>918.204</ele>
        <time>2015-07-01T12:30:14Z</time>
      </trkpt>
      <trkpt lat="42.1285" lon="9.1329">
        <ele>916.46</ele>
        <time>2015-07-01T12:31:29Z</time>
      </trkpt>
      <trkpt lat="42.12845" lon="9.13291">
        <ele>918.273</ele>
        <time>2015-07-01T12:33:07Z</time>
      </trkpt>
      <trkpt lat="42.12829" lon="9.1328">
        <ele>917.975</ele>
        <time>2015-07-01T12:33:35Z</time>
      </trkpt>
      <trkpt lat="42.12845" lon="9.13288">
        <ele>917.35</ele>
        <time>2015-07-01T12:35:18Z</time>
      </trkpt>
      <trkpt lat="42.1284" lon="9.13284">
        <ele>917.176</ele>
        <time>2015-07-01T12:36:24Z</time>
      </trkpt>
      <trkpt lat="42.12852" lon="9.1328">
        <ele>916.917</ele>
        <time>2015-07-01T12:37:42Z</time>
      </trkpt>
      <trkpt lat="42.12849" lon="9.13291">
        <ele>917.481</ele>
        <time>2015-07-01T12:38:34Z</time>
      </trkpt>
      <trkpt lat="42.12853" lon="9.13284">
        <ele>917.358</ele>
        <time>2015-07-01T12:40:09Z</time>
      </trkpt>
      <trkpt lat="42.12853" lon="9.13282">
        <ele>898.486</ele>
        <time>2015-07-01T12:42:13Z</time>
      </trkpt>
      <trkpt lat="42.12853" lon="9.13282">
        <ele>928.649</ele>
        <time>2015-07-01T12:42:14Z</time>
      </trkpt>
      <trkpt lat="42.12853" lon="9.13282">
        <ele>924.232</ele>
        <time>2015-07-01T12:42:15Z</time>
      </trkpt>
      <trkpt lat="42.12853" lon="9.1328">
        <ele>909.599</ele>
        <time>2015-07-01T12:42:16Z</time>
      </trkpt>
      <trkpt lat="42.12852" lon="9.1328">
        <ele>923.882</ele>
        <time>2015-07-01T12:42:17Z</time>
      </trkpt>
      <trkpt lat="42.12851" lon="9.1328">
        <ele>917.814</ele>
        <time>2015-07-01T12:42:18Z</time>
      </trkpt>
      <trkpt lat="42.12834" lon="9.13289">
        <ele>917.695</ele>
        <time>2015-07-01T12:42:49Z</time>
      </trkpt>
      <trkpt lat="42.1285" lon="9.13277">
        <ele>917.348</ele>
        <time>2015-07-01T12:43:42Z</time>
      </trkpt>
      <trkpt lat="42.12856" lon="9.13266">
        <ele>916.439</ele>
        <time>2015-07-01T12:44:15Z</time>
      </trkpt>
      <trkpt lat="42.12856" lon="9.13277">
        <ele>917.042</ele>
        <time>2015-07-01T12:44:51Z</time>
      </trkpt>
      <trkpt lat="42.12873" lon="9.13276">
        <ele>917.042</ele>
        <time>2015-07-01T12:45:06Z</time>
      </trkpt>
      <trkpt lat="42.12872" lon="9.13272">
        <ele>916.986</ele>
        <time>2015-07-01T12:45:29Z</time>
      </trkpt>
      <trkpt lat="42.12855" lon="9.13284">
        <ele>915.837</ele>
        <time>2015-07-01T12:45:47Z</time>
      </trkpt>
      <trkpt lat="42.1284" lon="9.13295">
        <ele>916.094</ele>
        <time>2015-07-01T12:46:28Z</time>
      </trkpt>
      <trkpt lat="42.12849" lon="9.13271">
        <ele>916.39</ele>
        <time>2015-07-01T12:47:23Z</time>
      </trkpt>
      <trkpt lat="42.12858" lon="9.13263">
        <ele>916.234</ele>
        <time>2015-07-01T12:47:34Z</time>
      </trkpt>
      <trkpt lat="42.12846" lon="9.13279">
        <ele>917.112</ele>
        <time>2015-07-01T12:48:31Z</time>
      </trkpt>
      <trkpt lat="42.12856" lon="9.13284">
        <ele>917.628</ele>
        <time>2015-07-01T12:49:02Z</time>
      </trkpt>
      <trkpt lat="42.12846" lon="9.13281">
        <ele>919.042</ele>
        <time>2015-07-01T12:49:50Z</time>
      </trkpt>
      <trkpt lat="42.12831" lon="9.13291">
        <ele>918.977</ele>
        <time>2015-07-01T12:50:54Z</time>
      </trkpt>
      <trkpt lat="42.12833" lon="9.13288">
        <ele>918.958</ele>
        <time>2015-07-01T12:51:30Z</time>
      </trkpt>
      <trkpt lat="42.12838" lon="9.13282">
        <ele>919.057</ele>
        <time>2015-07-01T12:52:19Z</time>
      </trkpt>
      <trkpt lat="42.1284" lon="9.13278">
        <ele>918.483</ele>
        <time>2015-07-01T12:52:45Z</time>
      </trkpt>
      <trkpt lat="42.12847" lon="9.13281">
        <ele>918.068</ele>
        <time>2015-07-01T12:53:18Z</time>
      </trkpt>
      <trkpt lat="42.12841" lon="9.13275">
        <ele>918.822</ele>
        <time>2015-07-01T12:54:05Z</time>
      </trkpt>
      <trkpt lat="42.12839" lon="9.13271">
        <ele>919.181</ele>
        <time>2015-07-01T12:55:42Z</time>
      </trkpt>
      <trkpt lat="42.1284" lon="9.13256">
        <ele>918.351</ele>
        <time>2015-07-01T12:56:19Z</time>
      </trkpt>
      <trkpt lat="42.12832" lon="9.13269">
        <ele>917.659</ele>
        <time>2015-07-01T12:56:43Z</time>
      </trkpt>
      <trkpt lat="42.12842" lon="9.13275">
        <ele>917.266</ele>
        <time>2015-07-01T12:57:08Z</time>
      </trkpt>
      <trkpt lat="42.12848" lon="9.13279">
        <ele>917.307</ele>
        <time>2015-07-01T12:57:31Z</time>
      </trkpt>
      <trkpt lat="42.12845" lon="9.13281">
        <ele>917.052</ele>
        <time>2015-07-01T12:58:02Z</time>
      </trkpt>
      <trkpt lat="42.12845" lon="9.13289">
        <ele>917.596</ele>
        <time>2015-07-01T12:58:25Z</time>
      </trkpt>
      <trkpt lat="42.1283" lon="9.13286">
        <ele>917.445</ele>
        <time>2015-07-01T12:58:52Z</time>
      </trkpt>
      <trkpt lat="42.12843" lon="9.13286">
        <ele>918.63</ele>
        <time>2015-07-01T12:59:40Z</time>
      </trkpt>
      <trkpt lat="42.12845" lon="9.1329">
        <ele>920.478</ele>
        <time>2015-07-01T13:00:10Z</time>
      </trkpt>
      <trkpt lat="42.1283" lon="9.13284">
        <ele>919.432</ele>
        <time>2015-07-01T13:00:28Z</time>
      </trkpt>
      <trkpt lat="42.12835" lon="9.13278">
        <ele>919.496</ele>
        <time>2015-07-01T13:00:52Z</time>
      </trkpt>
      <trkpt lat="42.12839" lon="9.13278">
        <ele>919.284</ele>
        <time>2015-07-01T13:01:22Z</time>
      </trkpt>
      <trkpt lat="42.1285" lon="9.13276">
        <ele>916.406</ele>
        <time>2015-07-01T13:01:54Z</time>
      </trkpt>
    </trkseg>
  </trk>
</gpx>